Time,TemperatureF,DewpointF,PressureIn,WindDirection,WindDirectionDegrees,WindSpeedMPH,WindSpeedGustMPH,Humidity,HourlyPrecipIn,Conditions,Clouds,dailyrainin,SoftwareType,DateUTC
2013-04-18 00:01:00,61.1,61.1,30.04,WNW,296,0.0,0.0,100,0.00,RA,,0.00,WeatherDisplay:10.37,2013-04-18 04:01:00,
2013-04-18 00:02:00,61.2,61.2,30.04,WNW,296,0.0,1.0,100,0.00,RA,,0.00,WeatherDisplay:10.37,2013-04-18 04:02:00,
2013-04-18 00:06:00,61.1,61.1,30.03,WNW,296,0.0,0.0,100,0.00,RA,,0.00,WeatherDisplay:10.37,2013-04-18 04:06:00,
2013-04-18 00:07:00,61.2,61.2,30.03,WNW,296,0.0,0.0,100,0.00,RA,,0.00,WeatherDisplay:10.37,2013-04-18 04:07:00,
2013-04-18 00:11:00,61.2,61.2,30.03,WNW,296,0.0,0.0,100,0.00,BKN,,0.00,WeatherDisplay:10.37,2013-04-18 04:11:00,
2013-04-18 00:12:00,61.2,61.2,30.03,WNW,296,0.0,0.0,100,0.00,BKN,,0.00,WeatherDisplay:10.37,2013-04-18 04:12:00,
2013-04-18 00:17:00,61.2,61.2,30.03,WNW,296,0.0,0.0,100,0.00,BKN,,0.00,WeatherDisplay:10.37,2013-04-18 04:17:00,
2013-04-18 00:18:00,61.2,61.2,30.03,WNW,296,0.0,0.0,100,0.00,BKN,,0.00,WeatherDisplay:10.37,2013-04-18 04:18:00,
2013-04-18 00:22:00,61.2,61.2,30.02,WNW,296,0.0,0.0,100,0.00,BKN,,0.00,WeatherDisplay:10.37,2013-04-18 04:22:00,
2013-04-18 00:23:00,61.1,61.1,30.02,WNW,296,0.0,0.0,100,0.00,BKN,,0.00,WeatherDisplay:10.37,2013-04-18 04:23:00,
2013-04-18 00:27:00,61.1,61.1,30.02,WNW,296,0.0,0.0,100,0.00,BKN,,0.00,WeatherDisplay:10.37,2013-04-18 04:27:00,
2013-04-18 00:28:00,61.1,61.1,30.02,WNW,296,0.0,0.0,100,0.00,BKN,,0.00,WeatherDisplay:10.37,2013-04-18 04:28:00,
2013-04-18 00:32:00,61.1,61.1,30.02,WNW,296,0.0,0.0,100,0.00,BKN,,0.00,WeatherDisplay:10.37,2013-04-18 04:32:00,
2013-04-18 00:33:00,61.1,61.1,30.02,WNW,296,0.0,0.0,100,0.00,BKN,,0.00,WeatherDisplay:10.37,2013-04-18 04:33:00,
2013-04-18 00:38:00,61.1,61.1,30.02,WNW,296,0.0,0.0,100,0.00,BKN,,0.00,WeatherDisplay:10.37,2013-04-18 04:38:00,
2013-04-18 00:39:00,61.1,61.1,30.02,WNW,296,0.0,0.0,100,0.00,BKN,,0.00,WeatherDisplay:10.37,2013-04-18 04:39:00,
2013-04-18 00:43:00,61.0,61.0,30.02,WNW,296,0.0,0.0,100,0.00,BKN,,0.00,WeatherDisplay:10.37,2013-04-18 04:43:00,
2013-04-18 00:44:00,60.9,60.9,30.02,WNW,296,0.0,0.0,100,0.00,BKN,,0.00,WeatherDisplay:10.37,2013-04-18 04:44:00,
2013-04-18 00:48:00,60.9,60.9,30.02,WNW,296,0.0,1.1,100,0.00,BKN,,0.00,WeatherDisplay:10.37,2013-04-18 04:48:00,
2013-04-18 00:49:00,60.9,60.9,30.02,WNW,296,0.0,0.0,100,0.00,BKN,,0.00,WeatherDisplay:10.37,2013-04-18 04:49:00,
2013-04-18 00:53:00,60.8,60.8,30.02,WNW,296,0.0,0.0,100,0.00,BKN,,0.00,WeatherDisplay:10.37,2013-04-18 04:53:00,
2013-04-18 00:54:00,60.8,60.8,30.02,WNW,296,0.0,0.0,100,0.00,BKN,,0.00,WeatherDisplay:10.37,2013-04-18 04:54:00,
2013-04-18 00:58:00,60.7,60.7,30.03,WNW,296,0.0,1.1,100,0.00,BKN,,0.00,WeatherDisplay:10.37,2013-04-18 04:58:00,
2013-04-18 00:59:00,60.6,60.6,30.02,WNW,296,0.0,0.0,100,0.00,BKN,,0.00,WeatherDisplay:10.37,2013-04-18 04:59:00,
2013-04-18 01:03:00,60.4,60.4,30.02,WNW,296,1.0,3.5,100,0.00,BKN,,0.00,WeatherDisplay:10.37,2013-04-18 05:03:00,
2013-04-18 01:04:00,60.4,60.4,30.02,WNW,296,0.0,0.0,100,0.00,BKN,,0.00,WeatherDisplay:10.37,2013-04-18 05:04:00,
2013-04-18 01:05:00,60.3,60.3,30.02,WNW,296,1.3,2.3,100,0.00,BKN,,0.00,WeatherDisplay:10.37,2013-04-18 05:05:00,
2013-04-18 01:08:00,60.2,60.2,30.03,WNW,296,0.6,2.3,100,0.00,BKN,,0.00,WeatherDisplay:10.37,2013-04-18 05:08:00,
2013-04-18 01:09:00,60.2,60.2,30.02,WNW,296,0.0,2.3,100,0.00,BKN,,0.00,WeatherDisplay:10.37,2013-04-18 05:09:00,
2013-04-18 01:10:00,60.3,60.3,30.03,WNW,294,0.4,1.1,100,0.00,BKN,,0.00,WeatherDisplay:10.37,2013-04-18 05:10:00,
2013-04-18 01:13:00,60.2,60.2,30.03,WNW,295,0.0,1.1,100,0.00,BKN,,0.00,WeatherDisplay:10.37,2013-04-18 05:13:00,
2013-04-18 01:14:00,60.2,60.2,30.03,WNW,295,0.0,0.0,100,0.00,BKN,,0.00,WeatherDisplay:10.37,2013-04-18 05:14:00,
2013-04-18 01:15:00,60.2,60.2,30.02,WNW,295,0.0,0.0,100,0.00,BKN,,0.00,WeatherDisplay:10.37,2013-04-18 05:15:00,
2013-04-18 01:18:00,60.2,60.2,30.02,WNW,295,0.0,0.0,100,0.00,BKN,,0.00,WeatherDisplay:10.37,2013-04-18 05:18:00,
2013-04-18 01:19:00,60.2,60.2,30.02,WNW,295,0.0,0.0,100,0.00,BKN,,0.00,WeatherDisplay:10.37,2013-04-18 05:19:00,
2013-04-18 01:20:00,60.2,60.2,30.02,WNW,295,0.0,0.0,100,0.00,BKN,,0.00,WeatherDisplay:10.37,2013-04-18 05:20:00,
2013-04-18 01:23:00,60.2,60.2,30.02,WNW,295,0.0,0.0,100,0.00,BKN,,0.00,WeatherDisplay:10.37,2013-04-18 05:23:00,
2013-04-18 01:24:00,60.2,60.2,30.02,WNW,295,0.0,0.0,100,0.00,BKN,,0.00,WeatherDisplay:10.37,2013-04-18 05:24:00,
2013-04-18 01:25:00,60.2,60.2,30.02,WNW,295,0.0,0.0,100,0.00,BKN,,0.00,WeatherDisplay:10.37,2013-04-18 05:25:00,
2013-04-18 01:29:00,60.1,60.1,30.02,WNW,295,0.0,0.0,100,0.00,BKN,,0.00,WeatherDisplay:10.37,2013-04-18 05:29:00,
2013-04-18 01:30:00,60.1,60.1,30.02,WNW,295,0.0,0.0,100,0.00,BKN,,0.00,WeatherDisplay:10.37,2013-04-18 05:30:00,
2013-04-18 01:31:00,60.1,60.1,30.02,WNW,295,0.0,0.0,100,0.00,BKN,,0.00,WeatherDisplay:10.37,2013-04-18 05:31:00,
2013-04-18 01:34:00,60.1,60.1,30.02,WNW,295,0.0,0.0,100,0.00,BKN,,0.00,WeatherDisplay:10.37,2013-04-18 05:34:00,
2013-04-18 01:35:00,60.1,60.1,30.02,WNW,295,0.0,0.0,100,0.00,BKN,,0.00,WeatherDisplay:10.37,2013-04-18 05:35:00,
2013-04-18 01:37:00,60.1,60.1,30.02,WNW,295,0.0,0.0,100,0.00,BKN,,0.00,WeatherDisplay:10.37,2013-04-18 05:37:00,
2013-04-18 01:39:00,60.0,60.0,30.02,WNW,295,0.0,0.0,100,0.00,BKN,,0.00,WeatherDisplay:10.37,2013-04-18 05:39:00,
2013-04-18 01:40:00,60.0,60.0,30.02,WNW,295,0.0,0.0,100,0.00,BKN,,0.00,WeatherDisplay:10.37,2013-04-18 05:40:00,
2013-04-18 01:41:00,60.0,60.0,30.02,WNW,294,0.0,0.0,100,0.00,BKN,,0.00,WeatherDisplay:10.37,2013-04-18 05:41:00,
2013-04-18 01:43:00,59.8,59.8,30.02,WNW,295,0.0,0.0,100,0.00,BKN,,0.00,WeatherDisplay:10.37,2013-04-18 05:43:00,
2013-04-18 01:44:00,59.8,59.8,30.02,WNW,295,0.0,0.0,100,0.00,BKN,,0.00,WeatherDisplay:10.37,2013-04-18 05:44:00,
2013-04-18 01:45:00,59.8,59.8,30.02,WNW,295,0.0,0.0,100,0.00,BKN,,0.00,WeatherDisplay:10.37,2013-04-18 05:45:00,
2013-04-18 01:46:00,59.8,59.8,30.02,WNW,295,0.0,0.0,100,0.00,BKN,,0.00,WeatherDisplay:10.37,2013-04-18 05:46:00,
2013-04-18 01:48:00,59.8,59.8,30.02,WNW,295,0.0,0.0,100,0.00,BKN,,0.00,WeatherDisplay:10.37,2013-04-18 05:48:00,
2013-04-18 01:49:00,59.8,59.8,30.02,WNW,295,0.0,0.0,100,0.00,BKN,,0.00,WeatherDisplay:10.37,2013-04-18 05:49:00,
2013-04-18 01:50:00,59.9,59.9,30.02,WNW,295,0.0,0.0,100,0.00,BKN,,0.00,WeatherDisplay:10.37,2013-04-18 05:50:00,
2013-04-18 01:51:00,59.9,59.9,30.02,WNW,295,0.0,0.0,100,0.00,BKN,,0.00,WeatherDisplay:10.37,2013-04-18 05:51:00,
2013-04-18 01:53:00,59.8,59.8,30.02,WNW,295,0.0,0.0,100,0.00,BKN,,0.00,WeatherDisplay:10.37,2013-04-18 05:53:00,
2013-04-18 01:54:00,59.8,59.8,30.02,WNW,295,0.0,0.0,100,0.00,BKN,,0.00,WeatherDisplay:10.37,2013-04-18 05:54:00,
2013-04-18 01:56:00,59.8,59.8,30.01,WNW,295,0.0,0.0,100,0.00,BKN,,0.00,WeatherDisplay:10.37,2013-04-18 05:56:00,
2013-04-18 01:57:00,59.8,59.8,30.02,WNW,295,0.0,0.0,100,0.00,BKN,,0.00,WeatherDisplay:10.37,2013-04-18 05:57:00,
2013-04-18 01:58:00,59.8,59.8,30.01,WNW,295,0.0,0.0,100,0.00,BKN,,0.00,WeatherDisplay:10.37,2013-04-18 05:58:00,
2013-04-18 02:00:00,59.7,59.7,30.01,WNW,295,0.0,0.0,100,0.00,BKN,,0.00,WeatherDisplay:10.37,2013-04-18 06:00:00,
2013-04-18 02:02:00,59.7,59.7,30.01,WNW,295,0.0,0.0,100,0.00,BKN,,0.00,WeatherDisplay:10.37,2013-04-18 06:02:00,
2013-04-18 02:04:00,59.7,59.7,30.02,WNW,295,0.0,0.0,100,0.00,BKN,,0.00,WeatherDisplay:10.37,2013-04-18 06:04:00,
2013-04-18 02:05:00,59.6,59.6,30.02,WNW,295,0.0,0.0,100,0.00,BKN,,0.00,WeatherDisplay:10.37,2013-04-18 06:05:00,
2013-04-18 02:07:00,59.5,59.5,30.02,WNW,295,0.0,0.0,100,0.00,BKN,,0.00,WeatherDisplay:10.37,2013-04-18 06:07:00,
2013-04-18 02:08:00,59.5,59.5,30.02,WNW,295,0.0,0.0,100,0.00,BKN,,0.00,WeatherDisplay:10.37,2013-04-18 06:08:00,
2013-04-18 02:09:00,59.5,59.5,30.02,WNW,295,0.0,0.0,100,0.00,BKN,,0.00,WeatherDisplay:10.37,2013-04-18 06:09:00,
2013-04-18 02:10:00,59.6,59.6,30.02,WNW,295,0.0,0.0,100,0.00,BKN,,0.00,WeatherDisplay:10.37,2013-04-18 06:10:00,
2013-04-18 02:12:00,59.6,59.6,30.02,WNW,295,0.0,0.0,100,0.00,BKN,,0.00,WeatherDisplay:10.37,2013-04-18 06:12:00,
2013-04-18 02:13:00,59.6,59.6,30.02,WNW,295,0.0,0.0,100,0.00,BKN,,0.00,WeatherDisplay:10.37,2013-04-18 06:13:00,
2013-04-18 02:14:00,59.6,59.6,30.02,WNW,295,0.0,0.0,100,0.00,BKN,,0.00,WeatherDisplay:10.37,2013-04-18 06:14:00,
2013-04-18 02:15:00,59.6,59.6,30.02,WNW,295,0.0,0.0,100,0.00,BKN,,0.00,WeatherDisplay:10.37,2013-04-18 06:15:00,
2013-04-18 02:17:00,59.5,59.5,30.01,WNW,295,0.0,0.0,100,0.00,BKN,,0.00,WeatherDisplay:10.37,2013-04-18 06:17:00,
2013-04-18 02:18:00,59.5,59.5,30.02,WNW,295,0.0,0.0,100,0.00,BKN,,0.00,WeatherDisplay:10.37,2013-04-18 06:18:00,
2013-04-18 02:19:00,59.5,59.5,30.02,WNW,295,0.0,1.1,100,0.00,BKN,,0.00,WeatherDisplay:10.37,2013-04-18 06:19:00,
2013-04-18 02:21:00,59.5,59.5,30.01,WNW,295,0.0,0.0,100,0.00,BKN,,0.00,WeatherDisplay:10.37,2013-04-18 06:21:00,
2013-04-18 02:23:00,59.5,59.5,30.02,WNW,295,0.0,0.0,100,0.00,BKN,,0.00,WeatherDisplay:10.37,2013-04-18 06:23:00,
2013-04-18 02:24:00,59.5,59.5,30.02,WNW,295,0.0,0.0,100,0.00,BKN,,0.00,WeatherDisplay:10.37,2013-04-18 06:24:00,
2013-04-18 02:26:00,59.5,59.5,30.02,WNW,295,0.0,0.0,100,0.00,BKN,,0.00,WeatherDisplay:10.37,2013-04-18 06:26:00,
2013-04-18 02:28:00,59.5,59.5,30.02,WNW,295,0.0,0.0,100,0.00,BKN,,0.00,WeatherDisplay:10.37,2013-04-18 06:28:00,
2013-04-18 02:29:00,59.5,59.5,30.02,WNW,295,0.0,0.0,100,0.00,BKN,,0.00,WeatherDisplay:10.37,2013-04-18 06:29:00,
2013-04-18 02:30:00,59.5,59.5,30.02,WNW,295,0.0,0.0,100,0.00,BKN,,0.00,WeatherDisplay:10.37,2013-04-18 06:30:00,
2013-04-18 02:31:00,59.5,59.5,30.02,WNW,295,0.0,0.0,100,0.00,BKN,,0.00,WeatherDisplay:10.37,2013-04-18 06:31:00,
2013-04-18 02:33:00,59.4,59.4,30.02,WNW,295,0.0,0.0,100,0.00,BKN,,0.00,WeatherDisplay:10.37,2013-04-18 06:33:00,
2013-04-18 02:34:00,59.4,59.4,30.02,WNW,295,0.0,0.0,100,0.00,BKN,,0.00,WeatherDisplay:10.37,2013-04-18 06:34:00,
2013-04-18 02:35:00,59.4,59.4,30.02,WNW,295,0.0,0.0,100,0.00,BKN,,0.00,WeatherDisplay:10.37,2013-04-18 06:35:00,
2013-04-18 02:36:00,59.4,59.4,30.01,WNW,295,0.0,0.0,100,0.00,BKN,,0.00,WeatherDisplay:10.37,2013-04-18 06:36:00,
2013-04-18 02:38:00,59.4,59.4,30.02,WNW,295,0.0,0.0,100,0.00,BKN,,0.00,WeatherDisplay:10.37,2013-04-18 06:38:00,
2013-04-18 02:39:00,59.4,59.4,30.02,WNW,295,0.0,0.0,100,0.00,BKN,,0.00,WeatherDisplay:10.37,2013-04-18 06:39:00,
2013-04-18 02:41:00,59.3,59.3,30.02,WNW,295,0.0,0.0,100,0.00,BKN,,0.00,WeatherDisplay:10.37,2013-04-18 06:41:00,
2013-04-18 02:44:00,59.3,59.3,30.02,WNW,295,0.0,0.0,100,0.00,BKN,,0.00,WeatherDisplay:10.37,2013-04-18 06:44:00,
2013-04-18 02:46:00,59.2,59.2,30.02,WNW,295,0.0,0.0,100,0.00,BKN,,0.00,WeatherDisplay:10.37,2013-04-18 06:46:00,
2013-04-18 02:47:00,59.2,59.2,30.02,WNW,294,0.0,0.0,100,0.00,BKN,,0.00,WeatherDisplay:10.37,2013-04-18 06:47:00,
2013-04-18 02:49:00,59.2,59.2,30.02,WNW,295,0.0,0.0,100,0.00,BKN,,0.00,WeatherDisplay:10.37,2013-04-18 06:49:00,
2013-04-18 02:50:00,59.2,59.2,30.02,WNW,295,0.0,0.0,100,0.00,BKN,,0.00,WeatherDisplay:10.37,2013-04-18 06:50:00,
2013-04-18 02:51:00,59.2,59.2,30.02,WNW,295,0.0,0.0,100,0.00,BKN,,0.00,WeatherDisplay:10.37,2013-04-18 06:51:00,
2013-04-18 02:52:00,59.1,59.1,30.02,WNW,295,0.0,0.0,100,0.00,BKN,,0.00,WeatherDisplay:10.37,2013-04-18 06:52:00,
2013-04-18 02:54:00,59.1,59.1,30.02,WNW,295,0.0,1.1,100,0.00,BKN,,0.00,WeatherDisplay:10.37,2013-04-18 06:54:00,
2013-04-18 02:55:00,59.1,59.1,30.02,WNW,294,0.4,2.0,100,0.00,BKN,,0.00,WeatherDisplay:10.37,2013-04-18 06:55:00,
2013-04-18 02:56:00,59.1,59.1,30.02,WNW,295,1.0,2.3,100,0.00,BKN,,0.00,WeatherDisplay:10.37,2013-04-18 06:56:00,
2013-04-18 02:57:00,59.1,59.1,30.02,WNW,295,1.1,2.3,100,0.00,BKN,,0.00,WeatherDisplay:10.37,2013-04-18 06:57:00,
2013-04-18 02:59:00,58.9,58.9,30.02,WNW,294,1.8,2.3,100,0.00,BKN,,0.00,WeatherDisplay:10.37,2013-04-18 06:59:00,
2013-04-18 03:00:00,58.9,58.9,30.02,WNW,294,1.7,2.3,100,0.00,BKN,,0.00,WeatherDisplay:10.37,2013-04-18 07:00:00,
2013-04-18 03:02:00,58.9,58.9,30.02,WNW,294,0.9,2.3,100,0.00,OVC,,0.00,WeatherDisplay:10.37,2013-04-18 07:02:00,
2013-04-18 03:05:00,58.8,58.8,30.02,West,262,2.7,3.5,100,0.00,OVC,,0.00,WeatherDisplay:10.37,2013-04-18 07:05:00,
2013-04-18 03:07:00,58.8,58.8,30.02,SW,234,2.7,4.6,100,0.00,OVC,,0.00,WeatherDisplay:10.37,2013-04-18 07:07:00,
2013-04-18 03:10:00,58.9,58.9,30.02,WSW,237,0.5,3.5,100,0.00,OVC,,0.00,WeatherDisplay:10.37,2013-04-18 07:10:00,
2013-04-18 03:12:00,59.0,59.0,30.02,WSW,237,2.8,3.5,100,0.00,OVC,,0.00,WeatherDisplay:10.37,2013-04-18 07:12:00,
2013-04-18 03:15:00,59.1,59.1,30.02,SW,224,2.9,3.5,100,0.00,OVC,,0.00,WeatherDisplay:10.37,2013-04-18 07:15:00,
2013-04-18 03:17:00,59.1,59.1,30.03,SW,228,2.0,3.5,100,0.00,OVC,,0.00,WeatherDisplay:10.37,2013-04-18 07:17:00,
2013-04-18 03:20:00,59.1,59.1,30.02,SW,228,0.0,1.0,100,0.00,OVC,,0.00,WeatherDisplay:10.37,2013-04-18 07:20:00,
2013-04-18 03:22:00,59.2,59.2,30.02,SW,228,0.4,2.0,100,0.00,OVC,,0.00,WeatherDisplay:10.37,2013-04-18 07:22:00,
2013-04-18 03:25:00,59.3,59.3,30.02,SW,228,0.5,3.5,100,0.00,OVC,,0.00,WeatherDisplay:10.37,2013-04-18 07:25:00,
2013-04-18 03:28:00,59.3,59.3,30.02,SW,229,1.1,3.5,100,0.00,OVC,,0.00,WeatherDisplay:10.37,2013-04-18 07:28:00,
2013-04-18 03:30:00,59.3,59.3,30.02,SW,229,0.0,1.1,100,0.00,OVC,,0.00,WeatherDisplay:10.37,2013-04-18 07:30:00,
2013-04-18 03:33:00,59.3,59.3,30.02,SW,229,0.0,1.1,100,0.00,OVC,,0.00,WeatherDisplay:10.37,2013-04-18 07:33:00,
2013-04-18 03:34:00,59.3,59.3,30.02,SW,229,0.0,0.0,100,0.00,OVC,,0.00,WeatherDisplay:10.37,2013-04-18 07:34:00,
2013-04-18 03:35:00,59.4,59.4,30.02,SW,229,0.0,0.0,100,0.00,OVC,,0.00,WeatherDisplay:10.37,2013-04-18 07:35:00,
2013-04-18 03:38:00,59.4,59.4,30.02,SW,228,0.0,0.0,100,0.00,OVC,,0.00,WeatherDisplay:10.37,2013-04-18 07:38:00,
2013-04-18 03:39:00,59.3,59.3,30.02,SW,228,0.0,0.0,100,0.00,OVC,,0.00,WeatherDisplay:10.37,2013-04-18 07:39:00,
2013-04-18 03:40:00,59.3,59.3,30.02,SW,228,0.0,0.0,100,0.00,OVC,,0.00,WeatherDisplay:10.37,2013-04-18 07:40:00,
2013-04-18 03:41:00,59.3,59.3,30.02,SW,229,0.0,0.0,100,0.00,OVC,,0.00,WeatherDisplay:10.37,2013-04-18 07:41:00,
2013-04-18 03:43:00,59.2,59.2,30.01,SW,229,0.0,0.0,100,0.00,OVC,,0.00,WeatherDisplay:10.37,2013-04-18 07:43:00,
2013-04-18 03:45:00,59.2,59.2,30.02,SW,229,0.0,0.0,100,0.00,OVC,,0.00,WeatherDisplay:10.37,2013-04-18 07:45:00,
2013-04-18 03:46:00,59.2,59.2,30.02,SW,229,0.0,0.0,100,0.00,OVC,,0.00,WeatherDisplay:10.37,2013-04-18 07:46:00,
2013-04-18 03:48:00,59.2,59.2,30.02,SW,229,0.0,0.0,100,0.00,OVC,,0.00,WeatherDisplay:10.37,2013-04-18 07:48:00,
2013-04-18 03:49:00,59.2,59.2,30.02,SW,229,0.0,0.0,100,0.00,OVC,,0.00,WeatherDisplay:10.37,2013-04-18 07:49:00,
2013-04-18 03:50:00,59.2,59.2,30.02,SW,229,0.0,0.0,100,0.00,OVC,,0.00,WeatherDisplay:10.37,2013-04-18 07:50:00,
2013-04-18 03:52:00,59.1,59.1,30.02,SW,229,0.0,0.0,100,0.00,OVC,,0.00,WeatherDisplay:10.37,2013-04-18 07:52:00,
2013-04-18 03:53:00,59.1,59.1,30.01,SW,229,0.0,0.0,100,0.00,OVC,,0.00,WeatherDisplay:10.37,2013-04-18 07:53:00,
2013-04-18 03:54:00,59.1,59.1,30.01,SW,229,0.0,0.0,100,0.00,OVC,,0.00,WeatherDisplay:10.37,2013-04-18 07:54:00,
2013-04-18 03:55:00,59.1,59.1,30.01,SW,229,0.0,0.0,100,0.00,OVC,,0.00,WeatherDisplay:10.37,2013-04-18 07:55:00,
2013-04-18 03:57:00,59.1,59.1,30.01,SW,228,0.0,0.0,100,0.00,OVC,,0.00,WeatherDisplay:10.37,2013-04-18 07:57:00,
2013-04-18 03:58:00,59.1,59.1,30.01,SW,229,0.0,0.0,100,0.00,OVC,,0.00,WeatherDisplay:10.37,2013-04-18 07:58:00,
2013-04-18 03:59:00,59.1,59.1,30.01,SW,229,0.0,0.0,100,0.00,OVC,,0.00,WeatherDisplay:10.37,2013-04-18 07:59:00,
2013-04-18 04:00:00,59.1,59.1,30.01,SW,229,0.0,0.0,100,0.00,OVC,,0.00,WeatherDisplay:10.37,2013-04-18 08:00:00,
2013-04-18 04:01:00,59.1,59.1,30.02,SW,229,0.0,0.0,100,0.00,OVC,,0.00,WeatherDisplay:10.37,2013-04-18 08:01:00,
2013-04-18 04:02:00,59.1,59.1,30.01,SW,229,0.0,0.0,100,0.00,OVC,,0.00,WeatherDisplay:10.37,2013-04-18 08:02:00,
2013-04-18 04:03:00,59.0,59.0,30.02,SW,229,0.0,0.0,100,0.00,OVC,,0.00,WeatherDisplay:10.37,2013-04-18 08:03:00,
2013-04-18 04:04:00,59.0,59.0,30.02,SW,229,0.0,0.0,100,0.00,OVC,,0.00,WeatherDisplay:10.37,2013-04-18 08:04:00,
2013-04-18 04:05:00,59.0,59.0,30.02,SW,228,0.0,0.0,100,0.00,OVC,,0.00,WeatherDisplay:10.37,2013-04-18 08:05:00,
2013-04-18 04:06:00,59.0,59.0,30.02,SW,229,0.0,0.0,100,0.00,OVC,,0.00,WeatherDisplay:10.37,2013-04-18 08:06:00,
2013-04-18 04:07:00,59.0,59.0,30.02,SW,229,0.0,0.0,100,0.00,OVC,,0.00,WeatherDisplay:10.37,2013-04-18 08:07:00,
2013-04-18 04:09:00,59.0,59.0,30.01,SW,229,0.0,0.0,100,0.00,OVC,,0.00,WeatherDisplay:10.37,2013-04-18 08:09:00,
2013-04-18 04:11:00,59.0,59.0,30.01,SW,229,0.0,0.0,100,0.00,OVC,,0.00,WeatherDisplay:10.37,2013-04-18 08:11:00,
2013-04-18 04:13:00,58.9,58.9,30.01,SW,229,0.0,0.0,100,0.00,OVC,,0.00,WeatherDisplay:10.37,2013-04-18 08:13:00,
2013-04-18 04:14:00,58.9,58.9,30.01,SW,229,0.0,0.0,100,0.00,OVC,,0.00,WeatherDisplay:10.37,2013-04-18 08:14:00,
2013-04-18 04:16:00,58.8,58.8,30.01,SW,229,0.1,1.1,100,0.00,OVC,,0.00,WeatherDisplay:10.37,2013-04-18 08:16:00,
2013-04-18 04:17:00,58.8,58.8,30.01,SW,229,0.1,1.1,100,0.00,OVC,,0.00,WeatherDisplay:10.37,2013-04-18 08:17:00,
2013-04-18 04:19:00,58.7,58.7,30.01,SW,228,0.0,0.0,100,0.00,OVC,,0.00,WeatherDisplay:10.37,2013-04-18 08:19:00,
2013-04-18 04:20:00,58.7,58.7,30.01,SW,228,0.0,0.0,100,0.00,OVC,,0.00,WeatherDisplay:10.37,2013-04-18 08:20:00,
2013-04-18 04:22:00,58.8,58.8,30.02,SW,229,0.0,0.0,100,0.00,OVC,,0.00,WeatherDisplay:10.37,2013-04-18 08:22:00,
2013-04-18 04:24:00,58.7,58.7,30.02,SW,229,0.0,0.0,100,0.00,OVC,,0.00,WeatherDisplay:10.37,2013-04-18 08:24:00,
2013-04-18 04:25:00,58.7,58.7,30.01,SW,229,0.0,0.0,100,0.00,OVC,,0.00,WeatherDisplay:10.37,2013-04-18 08:25:00,
2013-04-18 04:27:00,58.7,58.7,30.01,SW,228,0.0,0.0,100,0.00,OVC,,0.00,WeatherDisplay:10.37,2013-04-18 08:27:00,
2013-04-18 04:29:00,58.7,58.7,30.01,SW,228,0.0,0.0,100,0.00,OVC,,0.00,WeatherDisplay:10.37,2013-04-18 08:29:00,
2013-04-18 04:30:00,58.7,58.7,30.01,SW,228,0.0,0.0,100,0.00,OVC,,0.00,WeatherDisplay:10.37,2013-04-18 08:30:00,
2013-04-18 04:32:00,58.7,58.7,30.01,SW,229,0.0,0.0,100,0.00,OVC,,0.00,WeatherDisplay:10.37,2013-04-18 08:32:00,
2013-04-18 04:34:00,58.7,58.7,30.01,SW,229,0.0,0.0,100,0.00,OVC,,0.00,WeatherDisplay:10.37,2013-04-18 08:34:00,
2013-04-18 04:35:00,58.7,58.7,30.01,SW,229,0.0,0.0,100,0.00,OVC,,0.00,WeatherDisplay:10.37,2013-04-18 08:35:00,
2013-04-18 04:37:00,58.7,58.7,30.01,SW,229,0.0,0.0,100,0.00,OVC,,0.00,WeatherDisplay:10.37,2013-04-18 08:37:00,
2013-04-18 04:38:00,58.7,58.7,30.01,SW,229,0.0,0.0,100,0.00,OVC,,0.00,WeatherDisplay:10.37,2013-04-18 08:38:00,
2013-04-18 04:39:00,58.7,58.7,30.01,SW,228,0.0,0.0,100,0.00,OVC,,0.00,WeatherDisplay:10.37,2013-04-18 08:39:00,
2013-04-18 04:40:00,58.6,58.6,30.01,SW,229,0.0,0.0,100,0.00,OVC,,0.00,WeatherDisplay:10.37,2013-04-18 08:40:00,
2013-04-18 04:42:00,58.6,58.6,30.01,SW,229,0.0,0.0,100,0.00,OVC,,0.00,WeatherDisplay:10.37,2013-04-18 08:42:00,
2013-04-18 04:43:00,58.6,58.6,30.01,SW,228,0.0,0.0,100,0.00,OVC,,0.00,WeatherDisplay:10.37,2013-04-18 08:43:00,
2013-04-18 04:44:00,58.6,58.6,30.01,SW,229,0.0,0.0,100,0.00,OVC,,0.00,WeatherDisplay:10.37,2013-04-18 08:44:00,
2013-04-18 04:45:00,58.6,58.6,30.01,SW,229,0.0,0.0,100,0.00,OVC,,0.00,WeatherDisplay:10.37,2013-04-18 08:45:00,
2013-04-18 04:47:00,58.6,58.6,30.01,SW,229,0.0,0.0,100,0.00,OVC,,0.00,WeatherDisplay:10.37,2013-04-18 08:47:00,
2013-04-18 04:48:00,58.7,58.7,30.01,SW,228,0.0,0.0,100,0.00,OVC,,0.00,WeatherDisplay:10.37,2013-04-18 08:48:00,
2013-04-18 04:49:00,58.7,58.7,30.02,SW,229,0.0,0.0,100,0.00,OVC,,0.00,WeatherDisplay:10.37,2013-04-18 08:49:00,
2013-04-18 04:50:00,58.7,58.7,30.02,SW,229,0.0,0.0,100,0.00,OVC,,0.00,WeatherDisplay:10.37,2013-04-18 08:50:00,
2013-04-18 04:52:00,58.6,58.6,30.01,SW,229,0.0,0.0,100,0.00,OVC,,0.00,WeatherDisplay:10.37,2013-04-18 08:52:00,
2013-04-18 04:53:00,58.6,58.6,30.01,SW,228,0.0,0.0,100,0.00,OVC,,0.00,WeatherDisplay:10.37,2013-04-18 08:53:00,
2013-04-18 04:54:00,58.7,58.7,30.01,SW,228,0.0,0.0,100,0.00,OVC,,0.00,WeatherDisplay:10.37,2013-04-18 08:54:00,
2013-04-18 04:55:00,58.6,58.6,30.01,SW,229,0.0,0.0,100,0.00,OVC,,0.00,WeatherDisplay:10.37,2013-04-18 08:55:00,
2013-04-18 04:57:00,58.6,58.6,30.01,SW,229,0.0,0.0,100,0.00,OVC,,0.00,WeatherDisplay:10.37,2013-04-18 08:57:00,
2013-04-18 04:58:00,58.6,58.6,30.01,SW,229,0.0,0.0,100,0.00,OVC,,0.00,WeatherDisplay:10.37,2013-04-18 08:58:00,
2013-04-18 04:59:00,58.7,58.7,30.01,SW,228,0.0,0.0,100,0.00,OVC,,0.00,WeatherDisplay:10.37,2013-04-18 08:59:00,
2013-04-18 05:00:00,58.6,58.6,30.01,SW,228,0.0,0.0,100,0.00,OVC,,0.00,WeatherDisplay:10.37,2013-04-18 09:00:00,
2013-04-18 05:02:00,58.6,58.6,30.01,SW,229,0.0,0.0,100,0.00,OVC,,0.00,WeatherDisplay:10.37,2013-04-18 09:02:00,
2013-04-18 05:03:00,58.6,58.6,30.02,SW,228,0.0,0.0,100,0.00,OVC,,0.00,WeatherDisplay:10.37,2013-04-18 09:03:00,
2013-04-18 05:04:00,58.6,58.6,30.01,SW,229,0.0,0.0,100,0.00,OVC,,0.00,WeatherDisplay:10.37,2013-04-18 09:04:00,
2013-04-18 05:06:00,58.6,58.6,30.02,SW,228,0.0,0.0,100,0.00,OVC,,0.00,WeatherDisplay:10.37,2013-04-18 09:06:00,
2013-04-18 05:07:00,58.6,58.6,30.02,SW,228,0.0,1.1,100,0.00,OVC,,0.00,WeatherDisplay:10.37,2013-04-18 09:07:00,
2013-04-18 05:08:00,58.6,58.6,30.01,SW,229,0.0,0.0,100,0.00,OVC,,0.00,WeatherDisplay:10.37,2013-04-18 09:08:00,
2013-04-18 05:09:00,58.6,58.6,30.01,SW,229,0.0,0.0,100,0.00,OVC,,0.00,WeatherDisplay:10.37,2013-04-18 09:09:00,
2013-04-18 05:11:00,58.6,58.6,30.01,SW,229,0.0,0.0,100,0.00,OVC,,0.00,WeatherDisplay:10.37,2013-04-18 09:11:00,
2013-04-18 05:12:00,58.6,58.6,30.01,SW,229,0.0,0.0,100,0.00,OVC,,0.00,WeatherDisplay:10.37,2013-04-18 09:12:00,
2013-04-18 05:13:00,58.6,58.6,30.01,SW,229,0.0,0.0,100,0.00,OVC,,0.00,WeatherDisplay:10.37,2013-04-18 09:13:00,
2013-04-18 05:15:00,58.6,58.6,30.01,SW,228,0.0,0.0,100,0.00,OVC,,0.00,WeatherDisplay:10.37,2013-04-18 09:15:00,
2013-04-18 05:16:00,58.5,58.5,30.01,SW,229,0.0,0.0,100,0.00,OVC,,0.00,WeatherDisplay:10.37,2013-04-18 09:16:00,
2013-04-18 05:17:00,58.5,58.5,30.01,SW,229,0.0,0.0,100,0.00,OVC,,0.00,WeatherDisplay:10.37,2013-04-18 09:17:00,
2013-04-18 05:18:00,58.5,58.5,30.01,SW,229,0.0,0.0,100,0.00,OVC,,0.00,WeatherDisplay:10.37,2013-04-18 09:18:00,
2013-04-18 05:19:00,58.5,58.5,30.01,SW,229,0.0,0.0,100,0.00,OVC,,0.00,WeatherDisplay:10.37,2013-04-18 09:19:00,
2013-04-18 05:20:00,58.5,58.5,30.01,SW,229,0.0,0.0,100,0.00,OVC,,0.00,WeatherDisplay:10.37,2013-04-18 09:20:00,
2013-04-18 05:21:00,58.5,58.5,30.01,SW,229,0.1,0.0,100,0.00,OVC,,0.00,WeatherDisplay:10.37,2013-04-18 09:21:00,
2013-04-18 05:22:00,58.5,58.5,30.01,SW,229,0.0,1.1,100,0.00,OVC,,0.00,WeatherDisplay:10.37,2013-04-18 09:22:00,
2013-04-18 05:24:00,58.4,58.4,30.01,SW,229,0.0,0.0,100,0.00,OVC,,0.00,WeatherDisplay:10.37,2013-04-18 09:24:00,
2013-04-18 05:25:00,58.4,58.4,30.01,SW,228,0.0,0.0,100,0.00,OVC,,0.00,WeatherDisplay:10.37,2013-04-18 09:25:00,
2013-04-18 05:26:00,58.3,58.3,30.01,SW,228,0.0,0.0,100,0.00,OVC,,0.00,WeatherDisplay:10.37,2013-04-18 09:26:00,
2013-04-18 05:27:00,58.3,58.3,30.01,SW,229,0.0,0.0,100,0.00,OVC,,0.00,WeatherDisplay:10.37,2013-04-18 09:27:00,
2013-04-18 05:29:00,58.3,58.3,30.01,SW,229,0.0,0.0,100,0.00,OVC,,0.00,WeatherDisplay:10.37,2013-04-18 09:29:00,
2013-04-18 05:30:00,58.3,58.3,30.01,SW,228,0.0,0.0,100,0.00,OVC,,0.00,WeatherDisplay:10.37,2013-04-18 09:30:00,
2013-04-18 05:31:00,58.3,58.3,30.01,SW,229,0.0,0.0,100,0.00,OVC,,0.00,WeatherDisplay:10.37,2013-04-18 09:31:00,
2013-04-18 05:32:00,58.3,58.3,30.01,SW,228,0.0,0.0,100,0.00,OVC,,0.00,WeatherDisplay:10.37,2013-04-18 09:32:00,
2013-04-18 05:34:00,58.3,58.3,30.01,SW,229,0.0,0.0,100,0.00,OVC,,0.00,WeatherDisplay:10.37,2013-04-18 09:34:00,
2013-04-18 05:35:00,58.3,58.3,30.01,SW,229,0.0,0.0,100,0.00,OVC,,0.00,WeatherDisplay:10.37,2013-04-18 09:35:00,
2013-04-18 05:37:00,58.3,58.3,30.01,SW,229,0.0,0.0,100,0.00,OVC,,0.00,WeatherDisplay:10.37,2013-04-18 09:37:00,
2013-04-18 05:39:00,58.2,58.2,30.01,SW,229,0.0,0.0,100,0.00,OVC,,0.00,WeatherDisplay:10.37,2013-04-18 09:39:00,
2013-04-18 05:40:00,58.2,58.2,30.01,SW,228,0.0,0.0,100,0.00,OVC,,0.00,WeatherDisplay:10.37,2013-04-18 09:40:00,
2013-04-18 05:41:00,58.2,58.2,30.01,SW,229,0.0,0.0,100,0.00,OVC,,0.00,WeatherDisplay:10.37,2013-04-18 09:41:00,
2013-04-18 05:42:00,58.2,58.2,30.01,SW,228,0.0,0.0,100,0.00,OVC,,0.00,WeatherDisplay:10.37,2013-04-18 09:42:00,
2013-04-18 05:44:00,58.2,58.2,30.01,SW,229,0.0,0.0,100,0.00,OVC,,0.00,WeatherDisplay:10.37,2013-04-18 09:44:00,
2013-04-18 05:45:00,58.2,58.2,30.01,SW,229,0.0,0.0,100,0.00,OVC,,0.00,WeatherDisplay:10.37,2013-04-18 09:45:00,
2013-04-18 05:46:00,58.2,58.2,30.01,SW,229,0.0,0.0,100,0.00,OVC,,0.00,WeatherDisplay:10.37,2013-04-18 09:46:00,
2013-04-18 05:47:00,58.1,58.1,30.01,SW,229,0.0,0.0,100,0.00,OVC,,0.00,WeatherDisplay:10.37,2013-04-18 09:47:00,
2013-04-18 05:48:00,58.1,58.1,30.01,SW,228,0.0,0.0,100,0.00,OVC,,0.00,WeatherDisplay:10.37,2013-04-18 09:48:00,
2013-04-18 05:49:00,58.1,58.1,30.01,SW,229,0.0,0.0,100,0.00,OVC,,0.00,WeatherDisplay:10.37,2013-04-18 09:49:00,
2013-04-18 05:50:00,58.1,58.1,30.02,SW,228,0.0,0.0,100,0.00,OVC,,0.00,WeatherDisplay:10.37,2013-04-18 09:50:00,
2013-04-18 05:51:00,58.1,58.1,30.02,SW,229,0.0,0.0,100,0.00,OVC,,0.00,WeatherDisplay:10.37,2013-04-18 09:51:00,
2013-04-18 05:52:00,58.1,58.1,30.01,SW,229,0.0,0.0,100,0.00,OVC,,0.00,WeatherDisplay:10.37,2013-04-18 09:52:00,
2013-04-18 05:53:00,58.1,58.1,30.01,SW,229,0.0,0.0,100,0.00,OVC,,0.00,WeatherDisplay:10.37,2013-04-18 09:53:00,
2013-04-18 05:55:00,58.0,58.0,30.01,SW,228,0.0,0.0,100,0.00,OVC,,0.00,WeatherDisplay:10.37,2013-04-18 09:55:00,
2013-04-18 05:56:00,58.0,58.0,30.01,SW,229,0.0,0.0,100,0.00,OVC,,0.00,WeatherDisplay:10.37,2013-04-18 09:56:00,
2013-04-18 05:57:00,58.0,58.0,30.01,SW,228,0.0,0.0,100,0.00,OVC,,0.00,WeatherDisplay:10.37,2013-04-18 09:57:00,
2013-04-18 05:59:00,58.1,58.1,30.01,SW,228,0.0,0.0,100,0.00,OVC,,0.00,WeatherDisplay:10.37,2013-04-18 09:59:00,
2013-04-18 06:00:00,58.1,58.1,30.02,SW,229,0.0,0.0,100,0.00,OVC,,0.00,WeatherDisplay:10.37,2013-04-18 10:00:00,
2013-04-18 06:01:00,58.1,58.1,30.02,SW,229,0.0,0.0,100,0.00,BKN,,0.00,WeatherDisplay:10.37,2013-04-18 10:01:00,
2013-04-18 06:02:00,58.1,58.1,30.02,SW,229,0.0,0.0,100,0.00,BKN,,0.00,WeatherDisplay:10.37,2013-04-18 10:02:00,
2013-04-18 06:04:00,58.1,58.1,30.01,SW,228,0.0,0.0,100,0.00,BKN,,0.00,WeatherDisplay:10.37,2013-04-18 10:04:00,
2013-04-18 06:05:00,58.0,58.0,30.01,SW,229,0.0,0.0,100,0.00,BKN,,0.00,WeatherDisplay:10.37,2013-04-18 10:05:00,
2013-04-18 06:07:00,57.9,57.9,30.01,SW,229,0.0,0.0,100,0.00,BKN,,0.00,WeatherDisplay:10.37,2013-04-18 10:07:00,
2013-04-18 06:08:00,57.8,57.8,30.01,SW,229,0.0,0.0,100,0.00,BKN,,0.00,WeatherDisplay:10.37,2013-04-18 10:08:00,
2013-04-18 06:09:00,57.8,57.8,30.01,SW,228,0.0,0.0,100,0.00,BKN,,0.00,WeatherDisplay:10.37,2013-04-18 10:09:00,
2013-04-18 06:10:00,57.9,57.9,30.01,SW,228,0.0,0.0,100,0.00,BKN,,0.00,WeatherDisplay:10.37,2013-04-18 10:10:00,
2013-04-18 06:12:00,57.9,57.9,30.01,SW,229,0.0,0.0,100,0.00,BKN,,0.00,WeatherDisplay:10.37,2013-04-18 10:12:00,
2013-04-18 06:13:00,57.9,57.9,30.01,SW,228,0.0,0.0,100,0.00,BKN,,0.00,WeatherDisplay:10.37,2013-04-18 10:13:00,
2013-04-18 06:14:00,57.9,57.9,30.01,SW,228,0.0,0.0,100,0.00,BKN,,0.00,WeatherDisplay:10.37,2013-04-18 10:14:00,
2013-04-18 06:15:00,57.9,57.9,30.01,SW,229,0.0,0.0,100,0.00,BKN,,0.00,WeatherDisplay:10.37,2013-04-18 10:15:00,
2013-04-18 06:17:00,57.8,57.8,30.01,SW,229,0.0,0.0,100,0.00,BKN,,0.00,WeatherDisplay:10.37,2013-04-18 10:17:00,
2013-04-18 06:18:00,57.8,57.8,30.01,SW,229,0.0,0.0,100,0.00,BKN,,0.00,WeatherDisplay:10.37,2013-04-18 10:18:00,
2013-04-18 06:19:00,57.8,57.8,30.02,SW,229,0.0,0.0,100,0.00,BKN,,0.00,WeatherDisplay:10.37,2013-04-18 10:19:00,
2013-04-18 06:21:00,57.8,57.8,30.02,SW,229,0.0,0.0,100,0.00,BKN,,0.00,WeatherDisplay:10.37,2013-04-18 10:21:00,
2013-04-18 06:22:00,57.8,57.8,30.01,SW,229,0.0,0.0,100,0.00,BKN,,0.00,WeatherDisplay:10.37,2013-04-18 10:22:00,
2013-04-18 06:23:00,57.7,57.7,30.01,SW,229,0.0,0.0,100,0.00,BKN,,0.00,WeatherDisplay:10.37,2013-04-18 10:23:00,
2013-04-18 06:24:00,57.7,57.7,30.01,SW,229,0.0,0.0,100,0.00,BKN,,0.00,WeatherDisplay:10.37,2013-04-18 10:24:00,
2013-04-18 06:26:00,57.6,57.6,30.02,SW,229,0.0,0.0,100,0.00,BKN,,0.00,WeatherDisplay:10.37,2013-04-18 10:26:00,
2013-04-18 06:27:00,57.6,57.6,30.02,SW,228,0.0,0.0,100,0.00,BKN,,0.00,WeatherDisplay:10.37,2013-04-18 10:27:00,
2013-04-18 06:28:00,57.6,57.6,30.02,SW,228,0.0,0.0,100,0.00,BKN,,0.00,WeatherDisplay:10.37,2013-04-18 10:28:00,
2013-04-18 06:29:00,57.6,57.6,30.02,SW,229,0.0,0.0,100,0.00,BKN,,0.00,WeatherDisplay:10.37,2013-04-18 10:29:00,
2013-04-18 06:32:00,57.6,57.6,30.02,SW,229,0.0,0.0,100,0.00,BKN,,0.00,WeatherDisplay:10.37,2013-04-18 10:32:00,
2013-04-18 06:33:00,57.6,57.6,30.02,SW,229,0.0,0.0,100,0.00,BKN,,0.00,WeatherDisplay:10.37,2013-04-18 10:33:00,
2013-04-18 06:34:00,57.6,57.6,30.01,SW,229,0.0,0.0,100,0.00,BKN,,0.00,WeatherDisplay:10.37,2013-04-18 10:34:00,
2013-04-18 06:35:00,57.6,57.6,30.02,SW,229,0.0,0.0,100,0.00,BKN,,0.00,WeatherDisplay:10.37,2013-04-18 10:35:00,
2013-04-18 06:37:00,57.6,57.6,30.01,SW,228,0.0,0.0,100,0.00,BKN,,0.00,WeatherDisplay:10.37,2013-04-18 10:37:00,
2013-04-18 06:38:00,57.5,57.5,30.01,SW,229,0.0,0.0,100,0.00,BKN,,0.00,WeatherDisplay:10.37,2013-04-18 10:38:00,
2013-04-18 06:39:00,57.5,57.5,30.01,SW,228,0.0,0.0,100,0.00,BKN,,0.00,WeatherDisplay:10.37,2013-04-18 10:39:00,
2013-04-18 06:40:00,57.5,57.5,30.01,SW,229,0.0,0.0,100,0.00,BKN,,0.00,WeatherDisplay:10.37,2013-04-18 10:40:00,
2013-04-18 06:42:00,57.4,57.4,30.01,SW,228,0.0,0.0,100,0.00,BKN,,0.00,WeatherDisplay:10.37,2013-04-18 10:42:00,
2013-04-18 06:43:00,57.3,57.3,30.01,SW,229,0.0,0.0,100,0.00,BKN,,0.00,WeatherDisplay:10.37,2013-04-18 10:43:00,
2013-04-18 06:44:00,57.3,57.3,30.02,SW,229,0.0,0.0,100,0.00,BKN,,0.00,WeatherDisplay:10.37,2013-04-18 10:44:00,
2013-04-18 06:45:00,57.3,57.3,30.02,SW,228,0.0,0.0,100,0.00,BKN,,0.00,WeatherDisplay:10.37,2013-04-18 10:45:00,
2013-04-18 06:47:00,57.3,57.3,30.02,SW,228,0.0,0.0,100,0.00,BKN,,0.00,WeatherDisplay:10.37,2013-04-18 10:47:00,
2013-04-18 06:48:00,57.3,57.3,30.01,SW,229,0.0,0.0,100,0.00,BKN,,0.00,WeatherDisplay:10.37,2013-04-18 10:48:00,
2013-04-18 06:49:00,57.3,57.3,30.01,SW,228,0.0,0.0,100,0.00,BKN,,0.00,WeatherDisplay:10.37,2013-04-18 10:49:00,
2013-04-18 06:50:00,57.3,57.3,30.02,SW,228,0.0,0.0,100,0.00,BKN,,0.00,WeatherDisplay:10.37,2013-04-18 10:50:00,
2013-04-18 06:53:00,57.2,57.2,30.01,SW,229,0.0,0.0,100,0.00,BKN,,0.00,WeatherDisplay:10.37,2013-04-18 10:53:00,
2013-04-18 06:54:00,57.2,57.2,30.01,SW,229,0.0,0.0,100,0.00,BKN,,0.00,WeatherDisplay:10.37,2013-04-18 10:54:00,
2013-04-18 06:55:00,57.2,57.2,30.01,SW,229,0.0,0.0,100,0.00,BKN,,0.00,WeatherDisplay:10.37,2013-04-18 10:55:00,
2013-04-18 06:58:00,57.2,57.2,30.01,SW,229,0.0,0.0,100,0.00,BKN,,0.00,WeatherDisplay:10.37,2013-04-18 10:58:00,
2013-04-18 06:59:00,57.2,57.2,30.02,SW,229,0.0,0.0,100,0.00,BKN,,0.00,WeatherDisplay:10.37,2013-04-18 10:59:00,
2013-04-18 07:00:00,57.2,57.2,30.02,SW,229,0.0,0.0,100,0.00,BKN,,0.00,WeatherDisplay:10.37,2013-04-18 11:00:00,
2013-04-18 07:01:00,57.2,57.2,30.02,SW,229,0.0,0.0,100,0.00,BKN,,0.00,WeatherDisplay:10.37,2013-04-18 11:01:00,
2013-04-18 07:03:00,57.1,57.1,30.01,SW,229,0.0,0.0,100,0.00,BKN,,0.00,WeatherDisplay:10.37,2013-04-18 11:03:00,
2013-04-18 07:05:00,57.1,57.1,30.02,SW,229,0.0,0.0,100,0.00,BKN,,0.00,WeatherDisplay:10.37,2013-04-18 11:05:00,
2013-04-18 07:07:00,57.1,57.1,30.02,SW,228,0.0,0.0,100,0.00,BKN,,0.00,WeatherDisplay:10.37,2013-04-18 11:07:00,
2013-04-18 07:08:00,57.1,57.1,30.02,SW,228,0.0,0.0,100,0.00,BKN,,0.00,WeatherDisplay:10.37,2013-04-18 11:08:00,
2013-04-18 07:09:00,57.0,57.0,30.02,SW,229,0.0,0.0,100,0.00,BKN,,0.00,WeatherDisplay:10.37,2013-04-18 11:09:00,
2013-04-18 07:10:00,57.0,57.0,30.01,SW,228,0.0,0.0,100,0.00,BKN,,0.00,WeatherDisplay:10.37,2013-04-18 11:10:00,
2013-04-18 07:13:00,57.0,57.0,30.01,SW,229,0.0,0.0,100,0.00,BKN,,0.00,WeatherDisplay:10.37,2013-04-18 11:13:00,
2013-04-18 07:14:00,57.0,57.0,30.01,SW,229,0.0,0.0,100,0.00,BKN,,0.00,WeatherDisplay:10.37,2013-04-18 11:14:00,
2013-04-18 07:15:00,57.0,57.0,30.01,SW,229,0.0,0.0,100,0.00,BKN,,0.00,WeatherDisplay:10.37,2013-04-18 11:15:00,
2013-04-18 07:16:00,57.0,57.0,30.01,SW,228,0.0,0.0,100,0.00,BKN,,0.00,WeatherDisplay:10.37,2013-04-18 11:16:00,
2013-04-18 07:18:00,57.0,57.0,30.02,SW,229,0.0,0.0,100,0.00,BKN,,0.00,WeatherDisplay:10.37,2013-04-18 11:18:00,
2013-04-18 07:19:00,57.0,57.0,30.02,SW,229,0.0,0.0,100,0.00,BKN,,0.00,WeatherDisplay:10.37,2013-04-18 11:19:00,
2013-04-18 07:20:00,57.0,57.0,30.02,SW,229,0.0,0.0,100,0.00,BKN,,0.00,WeatherDisplay:10.37,2013-04-18 11:20:00,
2013-04-18 07:21:00,57.1,57.1,30.02,SW,229,0.0,0.0,100,0.00,BKN,,0.00,WeatherDisplay:10.37,2013-04-18 11:21:00,
2013-04-18 07:23:00,57.0,57.0,30.02,SW,229,0.0,0.0,100,0.00,BKN,,0.00,WeatherDisplay:10.37,2013-04-18 11:23:00,
2013-04-18 07:24:00,57.0,57.0,30.02,SW,229,0.0,0.0,100,0.00,BKN,,0.00,WeatherDisplay:10.37,2013-04-18 11:24:00,
2013-04-18 07:25:00,57.0,57.0,30.02,SW,229,0.0,0.0,100,0.00,BKN,,0.00,WeatherDisplay:10.37,2013-04-18 11:25:00,
2013-04-18 07:26:00,57.0,57.0,30.01,SW,229,0.0,0.0,100,0.00,BKN,,0.00,WeatherDisplay:10.37,2013-04-18 11:26:00,
2013-04-18 07:28:00,57.1,57.1,30.02,SW,229,0.0,0.0,100,0.00,BKN,,0.00,WeatherDisplay:10.37,2013-04-18 11:28:00,
2013-04-18 07:29:00,57.1,57.1,30.01,SW,229,0.0,0.0,100,0.00,BKN,,0.00,WeatherDisplay:10.37,2013-04-18 11:29:00,
2013-04-18 07:30:00,57.1,57.1,30.02,SW,229,0.0,0.0,100,0.00,BKN,,0.00,WeatherDisplay:10.37,2013-04-18 11:30:00,
2013-04-18 07:32:00,57.1,57.1,30.02,SW,229,0.0,0.0,100,0.00,BKN,,0.00,WeatherDisplay:10.37,2013-04-18 11:32:00,
2013-04-18 07:33:00,57.1,57.1,30.02,SW,229,0.0,0.0,100,0.00,BKN,,0.00,WeatherDisplay:10.37,2013-04-18 11:33:00,
2013-04-18 07:34:00,57.1,57.1,30.02,SW,229,0.0,0.0,100,0.00,BKN,,0.00,WeatherDisplay:10.37,2013-04-18 11:34:00,
2013-04-18 07:35:00,57.1,57.1,30.02,SW,229,0.0,0.0,100,0.00,BKN,,0.00,WeatherDisplay:10.37,2013-04-18 11:35:00,
2013-04-18 07:37:00,57.1,57.1,30.02,SW,229,0.0,0.0,100,0.00,BKN,,0.00,WeatherDisplay:10.37,2013-04-18 11:37:00,
2013-04-18 07:38:00,57.1,57.1,30.02,SW,229,0.7,0.0,100,0.00,BKN,,0.00,WeatherDisplay:10.37,2013-04-18 11:38:00,
2013-04-18 07:39:00,57.1,57.1,30.02,SW,229,0.0,0.0,100,0.00,BKN,,0.00,WeatherDisplay:10.37,2013-04-18 11:39:00,
2013-04-18 07:40:00,57.2,57.2,30.02,SW,229,0.0,0.0,100,0.00,BKN,,0.00,WeatherDisplay:10.37,2013-04-18 11:40:00,
2013-04-18 07:43:00,57.2,57.2,30.02,SW,228,0.0,1.1,100,0.00,BKN,,0.00,WeatherDisplay:10.37,2013-04-18 11:43:00,
2013-04-18 07:44:00,57.2,57.2,30.02,SW,228,0.0,0.0,100,0.00,BKN,,0.00,WeatherDisplay:10.37,2013-04-18 11:44:00,
2013-04-18 07:45:00,57.2,57.2,30.02,SW,228,0.0,0.0,100,0.00,BKN,,0.00,WeatherDisplay:10.37,2013-04-18 11:45:00,
2013-04-18 07:48:00,57.3,57.3,30.02,SW,228,0.0,0.0,100,0.00,BKN,,0.00,WeatherDisplay:10.37,2013-04-18 11:48:00,
2013-04-18 07:49:00,57.3,57.3,30.02,SW,228,0.0,0.0,100,0.00,BKN,,0.00,WeatherDisplay:10.37,2013-04-18 11:49:00,
2013-04-18 07:50:00,57.3,57.3,30.02,SW,229,0.0,0.0,100,0.00,BKN,,0.00,WeatherDisplay:10.37,2013-04-18 11:50:00,
2013-04-18 07:53:00,57.4,57.4,30.02,SW,228,0.0,0.0,100,0.00,BKN,,0.00,WeatherDisplay:10.37,2013-04-18 11:53:00,
2013-04-18 07:54:00,57.4,57.4,30.02,SW,228,0.0,0.0,100,0.00,BKN,,0.00,WeatherDisplay:10.37,2013-04-18 11:54:00,
2013-04-18 07:55:00,57.4,57.4,30.02,SW,229,0.0,0.0,100,0.00,BKN,,0.00,WeatherDisplay:10.37,2013-04-18 11:55:00,
2013-04-18 07:58:00,57.5,57.5,30.02,SW,229,0.0,0.0,100,0.00,BKN,,0.00,WeatherDisplay:10.37,2013-04-18 11:58:00,
2013-04-18 07:59:00,57.6,57.6,30.02,SW,228,0.0,0.0,100,0.00,BKN,,0.00,WeatherDisplay:10.37,2013-04-18 11:59:00,
2013-04-18 08:00:00,57.6,57.6,30.03,SW,228,0.0,0.0,100,0.00,BKN,,0.00,WeatherDisplay:10.37,2013-04-18 12:00:00,
2013-04-18 08:03:00,57.7,57.7,30.02,SW,228,0.0,0.0,100,0.00,SCT,,0.00,WeatherDisplay:10.37,2013-04-18 12:03:00,
2013-04-18 08:04:00,57.7,57.7,30.02,SW,228,0.0,0.0,100,0.00,SCT,,0.00,WeatherDisplay:10.37,2013-04-18 12:04:00,
2013-04-18 08:05:00,57.7,57.7,30.02,SW,228,0.0,0.0,100,0.00,SCT,,0.00,WeatherDisplay:10.37,2013-04-18 12:05:00,
2013-04-18 08:06:00,57.8,57.8,30.02,SW,228,0.0,0.0,100,0.00,SCT,,0.00,WeatherDisplay:10.37,2013-04-18 12:06:00,
2013-04-18 08:08:00,57.9,57.9,30.02,SW,229,0.0,0.0,100,0.00,SCT,,0.00,WeatherDisplay:10.37,2013-04-18 12:08:00,
2013-04-18 08:09:00,57.9,57.9,30.02,SW,229,0.0,0.0,100,0.00,SCT,,0.00,WeatherDisplay:10.37,2013-04-18 12:09:00,
2013-04-18 08:10:00,57.9,57.9,30.02,SW,228,0.0,0.0,100,0.00,SCT,,0.00,WeatherDisplay:10.37,2013-04-18 12:10:00,
2013-04-18 08:11:00,58.0,58.0,30.03,SW,228,0.0,0.0,100,0.00,SCT,,0.00,WeatherDisplay:10.37,2013-04-18 12:11:00,
2013-04-18 08:13:00,58.1,58.1,30.02,SW,229,0.0,0.0,100,0.00,SCT,,0.00,WeatherDisplay:10.37,2013-04-18 12:13:00,
2013-04-18 08:15:00,58.2,58.2,30.03,SW,228,0.0,0.0,100,0.00,SCT,,0.00,WeatherDisplay:10.37,2013-04-18 12:15:00,
2013-04-18 08:16:00,58.2,58.2,30.03,SW,228,0.0,0.0,100,0.00,SCT,,0.00,WeatherDisplay:10.37,2013-04-18 12:16:00,
2013-04-18 08:17:00,58.2,58.2,30.03,SW,228,0.0,0.0,100,0.00,SCT,,0.00,WeatherDisplay:10.37,2013-04-18 12:17:00,
2013-04-18 08:18:00,58.3,58.3,30.03,SW,229,0.0,0.0,100,0.00,SCT,,0.00,WeatherDisplay:10.37,2013-04-18 12:18:00,
2013-04-18 08:20:00,58.4,58.4,30.02,SW,228,0.0,0.0,100,0.00,SCT,,0.00,WeatherDisplay:10.37,2013-04-18 12:20:00,
2013-04-18 08:22:00,58.4,58.4,30.03,SW,229,0.0,0.0,100,0.00,SCT,,0.00,WeatherDisplay:10.37,2013-04-18 12:22:00,
2013-04-18 08:24:00,58.5,58.5,30.03,SW,228,0.0,0.0,100,0.00,SCT,,0.00,WeatherDisplay:10.37,2013-04-18 12:24:00,
2013-04-18 08:27:00,58.6,58.6,30.03,SW,228,0.0,0.0,100,0.00,SCT,,0.00,WeatherDisplay:10.37,2013-04-18 12:27:00,
2013-04-18 08:28:00,58.7,58.7,30.03,SW,229,0.0,0.0,100,0.00,SCT,,0.00,WeatherDisplay:10.37,2013-04-18 12:28:00,
2013-04-18 08:29:00,58.7,58.7,30.03,SW,228,0.0,0.0,100,0.00,SCT,,0.00,WeatherDisplay:10.37,2013-04-18 12:29:00,
2013-04-18 08:32:00,58.9,58.9,30.03,SW,229,0.0,0.0,100,0.00,SCT,,0.00,WeatherDisplay:10.37,2013-04-18 12:32:00,
2013-04-18 08:33:00,58.9,58.9,30.03,SW,228,0.0,0.0,100,0.00,SCT,,0.00,WeatherDisplay:10.37,2013-04-18 12:33:00,
2013-04-18 08:34:00,58.9,58.9,30.03,SW,229,0.0,0.0,100,0.00,SCT,,0.00,WeatherDisplay:10.37,2013-04-18 12:34:00,
2013-04-18 08:37:00,59.2,59.2,30.03,SW,229,0.1,0.0,100,0.00,SCT,,0.00,WeatherDisplay:10.37,2013-04-18 12:37:00,
2013-04-18 08:38:00,59.2,59.2,30.02,SW,228,0.0,1.1,100,0.00,SCT,,0.00,WeatherDisplay:10.37,2013-04-18 12:38:00,
2013-04-18 08:39:00,59.3,59.3,30.03,SW,228,0.0,0.0,100,0.00,SCT,,0.00,WeatherDisplay:10.37,2013-04-18 12:39:00,
2013-04-18 08:42:00,59.5,59.5,30.02,SW,228,0.0,0.0,100,0.00,SCT,,0.00,WeatherDisplay:10.37,2013-04-18 12:42:00,
2013-04-18 08:43:00,59.5,59.5,30.02,SW,229,0.0,0.0,100,0.00,SCT,,0.00,WeatherDisplay:10.37,2013-04-18 12:43:00,
2013-04-18 08:44:00,59.6,59.6,30.02,SW,228,0.0,0.0,100,0.00,SCT,,0.00,WeatherDisplay:10.37,2013-04-18 12:44:00,
2013-04-18 08:47:00,59.8,59.8,30.02,SW,228,0.0,0.0,100,0.00,SCT,,0.00,WeatherDisplay:10.37,2013-04-18 12:47:00,
2013-04-18 08:48:00,59.8,59.8,30.02,SW,228,0.0,1.1,100,0.00,SCT,,0.00,WeatherDisplay:10.37,2013-04-18 12:48:00,
2013-04-18 08:49:00,59.9,59.9,30.02,SW,228,0.0,0.0,100,0.00,SCT,,0.00,WeatherDisplay:10.37,2013-04-18 12:49:00,
2013-04-18 08:52:00,60.1,60.1,30.02,SW,228,0.0,0.0,100,0.00,SCT,,0.00,WeatherDisplay:10.37,2013-04-18 12:52:00,
2013-04-18 08:53:00,60.1,60.1,30.02,SW,228,0.0,0.0,100,0.00,SCT,,0.00,WeatherDisplay:10.37,2013-04-18 12:53:00,
2013-04-18 08:54:00,60.2,60.2,30.02,SW,228,0.0,0.0,100,0.00,SCT,,0.00,WeatherDisplay:10.37,2013-04-18 12:54:00,
2013-04-18 08:57:00,60.4,60.4,30.03,SW,229,0.1,1.1,100,0.00,SCT,,0.00,WeatherDisplay:10.37,2013-04-18 12:57:00,
2013-04-18 08:58:00,60.4,60.4,30.02,SW,228,0.1,1.1,100,0.00,SCT,,0.00,WeatherDisplay:10.37,2013-04-18 12:58:00,
2013-04-18 08:59:00,60.5,60.5,30.02,SW,228,0.1,0.0,100,0.00,SCT,,0.00,WeatherDisplay:10.37,2013-04-18 12:59:00,
2013-04-18 09:03:00,60.8,60.8,30.02,SW,228,0.0,0.0,100,0.00,SCT,,0.00,WeatherDisplay:10.37,2013-04-18 13:03:00,
2013-04-18 09:04:00,60.9,60.9,30.02,SW,228,0.0,1.1,100,0.00,SCT,,0.00,WeatherDisplay:10.37,2013-04-18 13:04:00,
2013-04-18 09:08:00,61.0,61.0,30.02,SW,228,0.0,0.0,100,0.00,SCT,,0.00,WeatherDisplay:10.37,2013-04-18 13:08:00,
2013-04-18 09:09:00,61.1,61.1,30.02,SW,228,0.0,0.0,100,0.00,SCT,,0.00,WeatherDisplay:10.37,2013-04-18 13:09:00,
2013-04-18 09:13:00,61.4,61.4,30.03,SW,228,0.0,1.1,100,0.00,SCT,,0.00,WeatherDisplay:10.37,2013-04-18 13:13:00,
2013-04-18 09:14:00,61.5,61.5,30.02,SW,228,0.0,1.1,100,0.00,SCT,,0.00,WeatherDisplay:10.37,2013-04-18 13:14:00,
2013-04-18 09:15:00,61.6,61.6,30.02,SW,228,0.0,0.0,100,0.00,SCT,,0.00,WeatherDisplay:10.37,2013-04-18 13:15:00,
2013-04-18 09:18:00,61.9,61.9,30.03,SW,228,0.1,1.1,100,0.00,SCT,,0.00,WeatherDisplay:10.37,2013-04-18 13:18:00,
2013-04-18 09:19:00,62.0,62.0,30.02,SW,228,0.0,0.0,100,0.00,SCT,,0.00,WeatherDisplay:10.37,2013-04-18 13:19:00,
2013-04-18 09:20:00,62.0,62.0,30.02,SW,228,0.0,0.0,100,0.00,SCT,,0.00,WeatherDisplay:10.37,2013-04-18 13:20:00,
2013-04-18 09:23:00,62.4,62.4,30.02,SW,228,0.0,0.0,100,0.00,SCT,,0.00,WeatherDisplay:10.37,2013-04-18 13:23:00,
2013-04-18 09:24:00,62.4,62.4,30.02,SW,228,0.0,0.0,100,0.00,SCT,,0.00,WeatherDisplay:10.37,2013-04-18 13:24:00,
2013-04-18 09:25:00,62.5,62.5,30.02,SW,228,0.0,0.0,100,0.00,SCT,,0.00,WeatherDisplay:10.37,2013-04-18 13:25:00,
2013-04-18 09:28:00,62.8,62.8,30.02,SW,228,0.0,0.0,100,0.00,SCT,,0.00,WeatherDisplay:10.37,2013-04-18 13:28:00,
2013-04-18 09:29:00,62.8,62.8,30.02,SW,228,0.0,0.0,100,0.00,SCT,,0.00,WeatherDisplay:10.37,2013-04-18 13:29:00,
2013-04-18 09:30:00,62.9,62.9,30.02,SW,228,0.1,1.1,100,0.00,SCT,,0.00,WeatherDisplay:10.37,2013-04-18 13:30:00,
2013-04-18 09:34:00,63.2,63.2,30.02,WSW,253,0.2,1.1,100,0.00,SCT,,0.00,WeatherDisplay:10.37,2013-04-18 13:34:00,
2013-04-18 09:35:00,63.2,63.2,30.02,West,259,0.0,1.1,100,0.00,SCT,,0.00,WeatherDisplay:10.37,2013-04-18 13:35:00,
2013-04-18 09:39:00,63.4,63.4,30.02,West,260,0.0,0.0,100,0.00,SCT,,0.00,WeatherDisplay:10.37,2013-04-18 13:39:00,
2013-04-18 09:40:00,63.5,63.5,30.02,West,260,0.0,0.0,100,0.00,SCT,,0.00,WeatherDisplay:10.37,2013-04-18 13:40:00,
2013-04-18 09:44:00,63.9,63.9,30.02,West,260,0.0,0.0,100,0.00,SCT,,0.00,WeatherDisplay:10.37,2013-04-18 13:44:00,
2013-04-18 09:45:00,64.0,64.0,30.02,West,260,0.0,0.0,100,0.00,SCT,,0.00,WeatherDisplay:10.37,2013-04-18 13:45:00,
2013-04-18 09:49:00,64.6,64.6,30.02,West,260,0.0,0.0,100,0.00,SCT,,0.00,WeatherDisplay:10.37,2013-04-18 13:49:00,
2013-04-18 09:50:00,64.7,64.7,30.02,West,260,0.0,0.0,100,0.00,SCT,,0.00,WeatherDisplay:10.37,2013-04-18 13:50:00,
2013-04-18 09:51:00,64.8,64.8,30.02,West,260,0.0,0.0,100,0.00,SCT,,0.00,WeatherDisplay:10.37,2013-04-18 13:51:00,
2013-04-18 09:55:00,65.2,65.2,30.02,SSE,162,1.0,3.5,100,0.00,SCT,,0.00,WeatherDisplay:10.37,2013-04-18 13:55:00,
2013-04-18 09:57:00,65.5,65.5,30.02,South,183,0.6,5.0,100,0.00,SCT,,0.00,WeatherDisplay:10.37,2013-04-18 13:57:00,
2013-04-18 10:00:00,65.7,65.7,30.02,SSW,202,1.8,4.0,100,0.00,SCT,,0.00,WeatherDisplay:10.37,2013-04-18 14:00:00,
2013-04-18 10:02:00,65.9,65.9,30.02,South,190,1.4,3.5,100,0.00,SCT,,0.00,WeatherDisplay:10.37,2013-04-18 14:02:00,
2013-04-18 10:05:00,66.2,66.2,30.02,South,186,0.7,2.0,100,0.00,SCT,,0.00,WeatherDisplay:10.37,2013-04-18 14:05:00,
2013-04-18 10:06:00,66.2,66.2,30.02,South,185,0.9,3.5,100,0.00,SCT,,0.00,WeatherDisplay:10.37,2013-04-18 14:06:00,
2013-04-18 10:07:00,66.4,66.1,30.02,WSW,239,1.9,6.9,99,0.00,SCT,,0.00,WeatherDisplay:10.37,2013-04-18 14:07:00,
2013-04-18 10:10:00,66.7,66.7,30.02,SSW,207,0.1,3.5,100,0.00,SCT,,0.00,WeatherDisplay:10.37,2013-04-18 14:10:00,
2013-04-18 10:11:00,66.7,66.7,30.02,SSW,207,0.0,1.1,100,0.00,SCT,,0.00,WeatherDisplay:10.37,2013-04-18 14:11:00,
2013-04-18 10:12:00,66.9,66.6,30.02,SW,232,1.9,5.8,99,0.00,SCT,,0.00,WeatherDisplay:10.37,2013-04-18 14:12:00,
2013-04-18 10:15:00,67.1,66.2,30.02,SW,236,0.1,1.1,97,0.00,SCT,,0.00,WeatherDisplay:10.37,2013-04-18 14:15:00,
2013-04-18 10:16:00,67.1,66.2,30.02,SW,236,0.3,1.1,97,0.00,SCT,,0.00,WeatherDisplay:10.37,2013-04-18 14:16:00,
2013-04-18 10:18:00,67.4,66.8,30.02,South,182,4.7,6.9,98,0.00,SCT,,0.00,WeatherDisplay:10.37,2013-04-18 14:18:00,
2013-04-18 10:21:00,67.6,67.0,30.02,South,184,2.7,3.5,98,0.00,SCT,,0.00,WeatherDisplay:10.37,2013-04-18 14:21:00,
2013-04-18 10:22:00,67.7,67.4,30.02,South,181,0.5,2.3,99,0.00,SCT,,0.00,WeatherDisplay:10.37,2013-04-18 14:22:00,
2013-04-18 10:23:00,67.8,67.2,30.02,South,181,0.1,2.3,98,0.00,SCT,,0.00,WeatherDisplay:10.37,2013-04-18 14:23:00,
2013-04-18 10:26:00,68.2,67.6,30.02,South,175,0.9,5.8,98,0.00,SCT,,0.00,WeatherDisplay:10.37,2013-04-18 14:26:00,
2013-04-18 10:27:00,68.2,67.6,30.02,South,175,0.4,2.3,98,0.00,SCT,,0.00,WeatherDisplay:10.37,2013-04-18 14:27:00,
2013-04-18 10:28:00,68.4,67.5,30.02,SSW,194,3.9,5.8,97,0.00,SCT,,0.00,WeatherDisplay:10.37,2013-04-18 14:28:00,
2013-04-18 10:31:00,68.7,67.8,30.02,South,183,1.8,4.6,97,0.00,SCT,,0.00,WeatherDisplay:10.37,2013-04-18 14:31:00,
2013-04-18 10:32:00,68.7,67.8,30.02,SSW,193,1.6,6.0,97,0.00,SCT,,0.00,WeatherDisplay:10.37,2013-04-18 14:32:00,
2013-04-18 10:33:00,68.8,67.3,30.02,South,183,5.8,8.1,95,0.00,SCT,,0.00,WeatherDisplay:10.37,2013-04-18 14:33:00,
2013-04-18 10:36:00,69.1,67.9,30.03,SSW,213,3.0,4.6,96,0.00,SCT,,0.00,WeatherDisplay:10.37,2013-04-18 14:36:00,
2013-04-18 10:37:00,69.1,67.6,30.02,SSW,209,3.3,7.0,95,0.00,SCT,,0.00,WeatherDisplay:10.37,2013-04-18 14:37:00,
2013-04-18 10:38:00,69.2,67.4,30.03,SW,226,5.4,8.1,94,0.00,SCT,,0.00,WeatherDisplay:10.37,2013-04-18 14:38:00,
2013-04-18 10:41:00,69.4,67.3,30.03,WSW,247,4.7,8.1,93,0.00,SCT,,0.00,WeatherDisplay:10.37,2013-04-18 14:41:00,
2013-04-18 10:42:00,69.4,67.3,30.03,SW,229,5.4,8.1,93,0.00,SCT,,0.00,WeatherDisplay:10.37,2013-04-18 14:42:00,
2013-04-18 10:43:00,69.6,67.5,30.03,SW,228,3.7,6.9,93,0.00,SCT,,0.00,WeatherDisplay:10.37,2013-04-18 14:43:00,
2013-04-18 10:47:00,69.8,67.1,30.03,WSW,238,6.4,9.0,91,0.00,SCT,,0.00,WeatherDisplay:10.37,2013-04-18 14:47:00,
2013-04-18 10:48:00,70.0,67.3,30.03,SW,216,7.9,11.5,91,0.00,SCT,,0.00,WeatherDisplay:10.37,2013-04-18 14:48:00,
2013-04-18 10:49:00,70.1,67.3,30.03,SW,229,8.3,11.5,91,0.00,SCT,,0.00,WeatherDisplay:10.37,2013-04-18 14:49:00,
2013-04-18 10:52:00,70.3,67.2,30.03,WSW,258,5.4,9.0,90,0.00,SCT,,0.00,WeatherDisplay:10.37,2013-04-18 14:52:00,
2013-04-18 10:53:00,70.5,67.1,30.02,WSW,252,5.7,9.2,89,0.00,SCT,,0.00,WeatherDisplay:10.37,2013-04-18 14:53:00,
2013-04-18 10:54:00,70.6,67.2,30.03,SW,220,3.9,6.9,89,0.00,SCT,,0.00,WeatherDisplay:10.37,2013-04-18 14:54:00,
2013-04-18 10:57:00,71.1,68.0,30.02,SSW,207,3.1,6.9,90,0.00,SCT,,0.00,WeatherDisplay:10.37,2013-04-18 14:57:00,
2013-04-18 10:58:00,71.2,68.1,30.02,SW,229,4.1,7.0,90,0.00,SCT,,0.00,WeatherDisplay:10.37,2013-04-18 14:58:00,
2013-04-18 10:59:00,71.2,67.1,30.02,SSW,197,4.6,10.4,87,0.00,SCT,,0.00,WeatherDisplay:10.37,2013-04-18 14:59:00,
2013-04-18 11:02:00,71.6,67.5,30.02,West,259,5.4,6.9,87,0.00,FEW,,0.00,WeatherDisplay:10.37,2013-04-18 15:02:00,
2013-04-18 11:03:00,71.6,67.9,30.02,SSW,211,6.3,13.0,88,0.00,FEW,,0.00,WeatherDisplay:10.37,2013-04-18 15:03:00,
2013-04-18 11:04:00,71.7,67.3,30.02,SSW,212,9.2,16.1,86,0.00,FEW,,0.00,WeatherDisplay:10.37,2013-04-18 15:04:00,
2013-04-18 11:07:00,72.0,67.6,30.02,SSW,212,6.8,12.7,86,0.00,FEW,,0.00,WeatherDisplay:10.37,2013-04-18 15:07:00,
2013-04-18 11:08:00,72.0,67.6,30.02,SSW,206,6.0,12.7,86,0.00,FEW,,0.00,WeatherDisplay:10.37,2013-04-18 15:08:00,
2013-04-18 11:09:00,72.1,67.3,30.02,SW,215,6.1,10.4,85,0.00,FEW,,0.00,WeatherDisplay:10.37,2013-04-18 15:09:00,
2013-04-18 11:13:00,72.5,67.4,30.02,SW,217,8.0,11.5,84,0.00,FEW,,0.00,WeatherDisplay:10.37,2013-04-18 15:13:00,
2013-04-18 11:14:00,72.5,67.0,30.02,SSW,204,7.3,11.5,83,0.00,FEW,,0.00,WeatherDisplay:10.37,2013-04-18 15:14:00,
2013-04-18 11:15:00,72.5,67.4,30.02,SSW,202,7.5,11.5,84,0.00,FEW,,0.00,WeatherDisplay:10.37,2013-04-18 15:15:00,
2013-04-18 11:18:00,72.8,66.6,30.02,SW,224,6.0,8.1,81,0.00,FEW,,0.00,WeatherDisplay:10.37,2013-04-18 15:18:00,
2013-04-18 11:19:00,73.0,67.5,30.02,West,264,8.5,11.5,83,0.00,FEW,,0.00,WeatherDisplay:10.37,2013-04-18 15:19:00,
2013-04-18 11:20:00,73.0,67.2,30.02,WSW,241,7.3,9.2,82,0.00,FEW,,0.00,WeatherDisplay:10.37,2013-04-18 15:20:00,
2013-04-18 11:23:00,73.3,67.1,30.02,WSW,243,6.0,12.0,81,0.00,FEW,,0.00,WeatherDisplay:10.37,2013-04-18 15:23:00,
2013-04-18 11:24:00,73.4,67.2,30.02,West,260,9.6,12.7,81,0.00,FEW,,0.00,WeatherDisplay:10.37,2013-04-18 15:24:00,
2013-04-18 11:25:00,73.5,66.9,30.02,West,272,8.5,11.5,80,0.00,FEW,,0.00,WeatherDisplay:10.37,2013-04-18 15:25:00,
2013-04-18 11:28:00,73.8,67.2,30.02,WSW,251,7.0,13.8,80,0.00,FEW,,0.00,WeatherDisplay:10.37,2013-04-18 15:28:00,
2013-04-18 11:29:00,73.9,67.3,30.02,SW,228,7.9,10.4,80,0.00,FEW,,0.00,WeatherDisplay:10.37,2013-04-18 15:29:00,
2013-04-18 11:30:00,74.0,67.8,30.02,SW,233,7.9,11.5,81,0.00,FEW,,0.00,WeatherDisplay:10.37,2013-04-18 15:30:00,
2013-04-18 11:33:00,74.1,67.2,30.02,SSW,203,7.6,9.2,79,0.00,FEW,,0.00,WeatherDisplay:10.37,2013-04-18 15:33:00,
2013-04-18 11:34:00,74.2,68.0,30.02,West,269,5.2,9.2,81,0.00,FEW,,0.00,WeatherDisplay:10.37,2013-04-18 15:34:00,
2013-04-18 11:35:00,74.1,68.3,30.01,West,259,3.9,8.1,82,0.00,FEW,,0.00,WeatherDisplay:10.37,2013-04-18 15:35:00,
2013-04-18 11:39:00,74.3,67.4,30.01,SW,216,5.8,10.4,79,0.00,FEW,,0.00,WeatherDisplay:10.37,2013-04-18 15:39:00,
2013-04-18 11:40:00,74.4,67.8,30.01,SSE,162,5.6,10.4,80,0.00,FEW,,0.00,WeatherDisplay:10.37,2013-04-18 15:40:00,
2013-04-18 11:44:00,74.6,66.5,30.01,SSW,210,11.8,15.0,76,0.00,FEW,,0.00,WeatherDisplay:10.37,2013-04-18 15:44:00,
2013-04-18 11:45:00,74.6,66.1,30.01,SSW,209,10.4,16.1,75,0.00,FEW,,0.00,WeatherDisplay:10.37,2013-04-18 15:45:00,
2013-04-18 11:47:00,74.6,66.5,30.01,SW,226,6.5,12.7,76,0.00,FEW,,0.00,WeatherDisplay:10.37,2013-04-18 15:47:00,
2013-04-18 11:49:00,74.8,67.5,30.01,SSW,206,8.2,10.4,78,0.00,FEW,,0.00,WeatherDisplay:10.37,2013-04-18 15:49:00,
2013-04-18 11:50:00,74.8,66.7,30.01,SW,230,7.2,16.1,76,0.00,FEW,,0.00,WeatherDisplay:10.37,2013-04-18 15:50:00,
2013-04-18 11:53:00,75.0,67.3,30.01,South,188,6.6,10.4,77,0.00,FEW,,0.00,WeatherDisplay:10.37,2013-04-18 15:53:00,
2013-04-18 11:54:00,75.1,67.4,30.01,SSW,200,6.2,10.4,77,0.00,FEW,,0.00,WeatherDisplay:10.37,2013-04-18 15:54:00,
2013-04-18 11:55:00,75.3,67.6,30.01,SSW,195,4.7,11.5,77,0.00,FEW,,0.00,WeatherDisplay:10.37,2013-04-18 15:55:00,
2013-04-18 11:56:00,75.4,68.1,30.01,SSW,194,6.3,11.5,78,0.00,FEW,,0.00,WeatherDisplay:10.37,2013-04-18 15:56:00,
2013-04-18 11:58:00,75.6,67.5,30.01,SSW,206,7.8,11.5,76,0.00,FEW,,0.00,WeatherDisplay:10.37,2013-04-18 15:58:00,
2013-04-18 11:59:00,75.8,68.1,30.01,SW,232,2.0,9.2,77,0.00,FEW,,0.00,WeatherDisplay:10.37,2013-04-18 15:59:00,
2013-04-18 12:00:00,75.7,68.0,30.01,SSW,210,6.0,9.2,77,0.00,FEW,,0.00,WeatherDisplay:10.37,2013-04-18 16:00:00,
2013-04-18 12:02:00,75.8,67.7,30.01,SSW,207,5.8,10.4,76,0.00,SCT,,0.00,WeatherDisplay:10.37,2013-04-18 16:02:00,
2013-04-18 12:03:00,75.7,68.0,30.01,SE,124,4.5,9.2,77,0.00,SCT,,0.00,WeatherDisplay:10.37,2013-04-18 16:03:00,
2013-04-18 12:04:00,75.8,67.7,30.01,SSW,199,4.0,10.4,76,0.00,SCT,,0.00,WeatherDisplay:10.37,2013-04-18 16:04:00,
2013-04-18 12:05:00,75.7,67.6,30.01,SSW,200,2.2,8.1,76,0.00,SCT,,0.00,WeatherDisplay:10.37,2013-04-18 16:05:00,
2013-04-18 12:07:00,75.8,66.9,30.01,SW,234,7.2,10.4,74,0.00,SCT,,0.00,WeatherDisplay:10.37,2013-04-18 16:07:00,
2013-04-18 12:08:00,75.7,67.2,30.01,WSW,243,7.5,16.1,75,0.00,SCT,,0.00,WeatherDisplay:10.37,2013-04-18 16:08:00,
2013-04-18 12:09:00,75.6,67.5,30.01,SW,215,8.4,17.0,76,0.00,SCT,,0.00,WeatherDisplay:10.37,2013-04-18 16:09:00,
2013-04-18 12:10:00,75.4,67.3,30.01,SSW,197,6.0,17.3,76,0.00,SCT,,0.00,WeatherDisplay:10.37,2013-04-18 16:10:00,
2013-04-18 12:13:00,75.5,67.8,30.00,SW,222,4.5,10.4,77,0.00,SCT,,0.00,WeatherDisplay:10.37,2013-04-18 16:13:00,
2013-04-18 12:14:00,75.5,67.8,30.00,SSW,213,8.8,12.7,77,0.00,SCT,,0.00,WeatherDisplay:10.37,2013-04-18 16:14:00,
2013-04-18 12:15:00,75.5,67.4,30.00,SW,234,7.1,13.8,76,0.00,SCT,,0.00,WeatherDisplay:10.37,2013-04-18 16:15:00,
2013-04-18 12:18:00,75.8,68.1,30.00,SSW,198,2.4,11.5,77,0.00,SCT,,0.00,WeatherDisplay:10.37,2013-04-18 16:18:00,
2013-04-18 12:19:00,76.0,68.6,30.00,SSW,203,2.0,12.0,78,0.00,SCT,,0.00,WeatherDisplay:10.37,2013-04-18 16:19:00,
2013-04-18 12:20:00,76.2,67.7,30.00,SSW,206,8.2,11.5,75,0.00,SCT,,0.00,WeatherDisplay:10.37,2013-04-18 16:20:00,
2013-04-18 12:21:00,76.3,67.4,30.00,SSW,200,5.6,11.5,74,0.00,SCT,,0.00,WeatherDisplay:10.37,2013-04-18 16:21:00,
2013-04-18 12:23:00,76.5,67.2,30.00,SSW,192,6.2,12.7,73,0.00,SCT,,0.00,WeatherDisplay:10.37,2013-04-18 16:23:00,
2013-04-18 12:24:00,76.6,67.3,30.00,South,175,7.0,12.7,73,0.00,SCT,,0.00,WeatherDisplay:10.37,2013-04-18 16:24:00,
2013-04-18 12:25:00,76.6,67.7,30.00,SSW,207,7.9,11.5,74,0.00,SCT,,0.00,WeatherDisplay:10.37,2013-04-18 16:25:00,
2013-04-18 12:27:00,76.8,67.5,30.00,SSW,193,9.9,12.7,73,0.00,SCT,,0.00,WeatherDisplay:10.37,2013-04-18 16:27:00,
2013-04-18 12:29:00,77.1,67.8,30.00,SSW,200,9.5,12.7,73,0.00,SCT,,0.00,WeatherDisplay:10.37,2013-04-18 16:29:00,
2013-04-18 12:30:00,77.2,67.5,30.00,SE,137,5.0,12.7,72,0.00,SCT,,0.00,WeatherDisplay:10.37,2013-04-18 16:30:00,
2013-04-18 12:32:00,77.4,67.7,29.99,South,184,7.8,15.0,72,0.00,SCT,,0.00,WeatherDisplay:10.37,2013-04-18 16:32:00,
2013-04-18 12:34:00,77.7,69.1,29.99,South,183,0.3,3.5,75,0.00,SCT,,0.00,WeatherDisplay:10.37,2013-04-18 16:34:00,
2013-04-18 12:35:00,77.9,68.5,29.99,SW,229,3.5,12.0,73,0.00,SCT,,0.00,WeatherDisplay:10.37,2013-04-18 16:35:00,
2013-04-18 12:37:00,78.0,68.2,29.99,SSW,204,2.3,12.7,72,0.00,SCT,,0.00,WeatherDisplay:10.37,2013-04-18 16:37:00,
2013-04-18 12:39:00,78.3,68.9,29.99,SSW,202,4.8,8.0,73,0.00,SCT,,0.00,WeatherDisplay:10.37,2013-04-18 16:39:00,
2013-04-18 12:40:00,78.4,69.0,29.99,SSW,203,4.8,9.2,73,0.00,SCT,,0.00,WeatherDisplay:10.37,2013-04-18 16:40:00,
2013-04-18 12:42:00,78.6,68.8,29.99,South,191,8.4,15.0,72,0.00,SCT,,0.00,WeatherDisplay:10.37,2013-04-18 16:42:00,
2013-04-18 12:44:00,78.8,68.6,29.99,South,173,6.2,8.1,71,0.00,SCT,,0.00,WeatherDisplay:10.37,2013-04-18 16:44:00,
2013-04-18 12:45:00,78.8,69.4,29.98,South,175,7.2,13.8,73,0.00,SCT,,0.00,WeatherDisplay:10.37,2013-04-18 16:45:00,
2013-04-18 12:47:00,78.5,67.9,29.98,SW,227,7.7,11.5,70,0.00,SCT,,0.00,WeatherDisplay:10.37,2013-04-18 16:47:00,
2013-04-18 12:49:00,78.3,68.9,29.98,SSW,207,0.8,8.1,73,0.00,SCT,,0.00,WeatherDisplay:10.37,2013-04-18 16:49:00,
2013-04-18 12:50:00,78.3,68.9,29.98,South,191,1.5,5.8,73,0.00,SCT,,0.00,WeatherDisplay:10.37,2013-04-18 16:50:00,
2013-04-18 12:52:00,78.1,68.3,29.98,SSW,198,9.0,15.0,72,0.00,SCT,,0.00,WeatherDisplay:10.37,2013-04-18 16:52:00,
2013-04-18 12:54:00,78.1,68.3,29.98,SSW,204,6.0,8.1,72,0.00,SCT,,0.00,WeatherDisplay:10.37,2013-04-18 16:54:00,
2013-04-18 12:55:00,78.1,68.3,29.98,SSW,203,6.1,8.1,72,0.00,SCT,,0.00,WeatherDisplay:10.37,2013-04-18 16:55:00,
2013-04-18 12:56:00,78.3,67.7,29.98,SSW,194,6.6,9.2,70,0.00,SCT,,0.00,WeatherDisplay:10.37,2013-04-18 16:56:00,
2013-04-18 12:58:00,78.6,68.4,29.98,SSW,193,4.9,9.2,71,0.00,SCT,,0.00,WeatherDisplay:10.37,2013-04-18 16:58:00,
2013-04-18 13:00:00,79.0,69.6,29.98,SSW,195,0.2,2.3,73,0.00,SCT,,0.00,WeatherDisplay:10.37,2013-04-18 17:00:00,
2013-04-18 13:02:00,79.4,70.0,29.97,SSE,148,0.0,1.1,73,0.00,SCT,,0.00,WeatherDisplay:10.37,2013-04-18 17:02:00,
2013-04-18 13:03:00,79.6,69.4,29.97,SW,217,0.6,3.5,71,0.00,SCT,,0.00,WeatherDisplay:10.37,2013-04-18 17:03:00,
2013-04-18 13:05:00,79.8,69.1,29.97,SSW,200,1.9,4.6,70,0.00,SCT,,0.00,WeatherDisplay:10.37,2013-04-18 17:05:00,
2013-04-18 13:07:00,80.1,70.3,29.97,SSE,157,2.6,6.9,72,0.00,SCT,,0.00,WeatherDisplay:10.37,2013-04-18 17:07:00,
2013-04-18 13:08:00,80.4,70.9,29.97,South,170,4.3,5.8,73,0.00,SCT,,0.00,WeatherDisplay:10.37,2013-04-18 17:08:00,
2013-04-18 13:10:00,80.5,67.6,29.97,SSW,199,13.9,18.4,65,0.00,SCT,,0.00,WeatherDisplay:10.37,2013-04-18 17:10:00,
2013-04-18 13:12:00,80.5,68.5,29.97,SE,143,5.5,11.5,67,0.00,SCT,,0.00,WeatherDisplay:10.37,2013-04-18 17:12:00,
2013-04-18 13:14:00,80.6,68.6,29.97,SSW,196,9.5,13.8,67,0.00,SCT,,0.00,WeatherDisplay:10.37,2013-04-18 17:14:00,
2013-04-18 13:15:00,80.7,68.3,29.97,SSW,212,6.8,13.8,66,0.00,SCT,,0.00,WeatherDisplay:10.37,2013-04-18 17:15:00,
2013-04-18 13:17:00,80.9,68.5,29.97,SSE,166,2.2,10.4,66,0.00,FEW,,0.00,WeatherDisplay:10.37,2013-04-18 17:17:00,
2013-04-18 13:19:00,81.1,69.1,29.97,WSW,252,4.6,10.4,67,0.00,FEW,,0.00,WeatherDisplay:10.37,2013-04-18 17:19:00,
2013-04-18 13:20:00,81.2,70.5,29.97,West,260,7.5,10.4,70,0.00,FEW,,0.00,WeatherDisplay:10.37,2013-04-18 17:20:00,
2013-04-18 13:23:00,81.0,69.9,29.97,SW,233,5.3,9.2,69,0.00,FEW,,0.00,WeatherDisplay:10.37,2013-04-18 17:23:00,
2013-04-18 13:24:00,80.7,69.6,29.97,SW,221,4.8,6.9,69,0.00,FEW,,0.00,WeatherDisplay:10.37,2013-04-18 17:24:00,
2013-04-18 13:25:00,80.5,68.1,29.97,WSW,249,8.7,10.4,66,0.00,FEW,,0.00,WeatherDisplay:10.37,2013-04-18 17:25:00,
2013-04-18 13:28:00,80.2,67.8,29.97,SSW,193,7.2,10.4,66,0.00,FEW,,0.00,WeatherDisplay:10.37,2013-04-18 17:28:00,
2013-04-18 13:29:00,80.1,67.7,29.96,WSW,237,8.1,11.5,66,0.00,FEW,,0.00,WeatherDisplay:10.37,2013-04-18 17:29:00,
2013-04-18 13:30:00,80.0,68.0,29.96,SW,227,6.0,14.0,67,0.00,FEW,,0.00,WeatherDisplay:10.37,2013-04-18 17:30:00,
2013-04-18 13:33:00,79.9,68.0,29.96,SSW,196,3.8,11.5,67,0.00,FEW,,0.00,WeatherDisplay:10.37,2013-04-18 17:33:00,
2013-04-18 13:34:00,80.0,68.5,29.96,SW,226,4.8,8.1,68,0.00,FEW,,0.00,WeatherDisplay:10.37,2013-04-18 17:34:00,
2013-04-18 13:36:00,80.3,68.3,29.96,SW,222,6.6,9.2,67,0.00,FEW,,0.00,WeatherDisplay:10.37,2013-04-18 17:36:00,
2013-04-18 13:38:00,80.6,67.7,29.96,SW,227,7.2,11.0,65,0.00,FEW,,0.00,WeatherDisplay:10.37,2013-04-18 17:38:00,
2013-04-18 13:39:00,80.7,67.8,29.96,SSW,202,6.7,11.5,65,0.00,FEW,,0.00,WeatherDisplay:10.37,2013-04-18 17:39:00,
2013-04-18 13:41:00,80.6,67.7,29.96,SSW,192,9.3,16.0,65,0.00,FEW,,0.00,WeatherDisplay:10.37,2013-04-18 17:41:00,
2013-04-18 13:43:00,80.6,67.7,29.96,SW,220,6.7,12.7,65,0.00,FEW,,0.00,WeatherDisplay:10.37,2013-04-18 17:43:00,
2013-04-18 13:44:00,80.7,68.3,29.96,South,187,6.4,11.5,66,0.00,FEW,,0.00,WeatherDisplay:10.37,2013-04-18 17:44:00,
2013-04-18 13:47:00,81.1,67.8,29.96,SSW,195,7.8,11.5,64,0.00,FEW,,0.00,WeatherDisplay:10.37,2013-04-18 17:47:00,
2013-04-18 13:48:00,81.2,67.4,29.96,SW,218,5.5,11.5,63,0.00,FEW,,0.00,WeatherDisplay:10.37,2013-04-18 17:48:00,
2013-04-18 13:49:00,81.3,67.5,29.96,SW,214,7.4,9.2,63,0.00,FEW,,0.00,WeatherDisplay:10.37,2013-04-18 17:49:00,
2013-04-18 13:52:00,81.1,65.9,29.95,West,264,7.7,12.7,60,0.00,FEW,,0.00,WeatherDisplay:10.37,2013-04-18 17:52:00,
2013-04-18 13:53:00,80.9,66.7,29.95,South,189,5.9,11.5,62,0.00,FEW,,0.00,WeatherDisplay:10.37,2013-04-18 17:53:00,
2013-04-18 13:54:00,80.8,66.6,29.95,South,189,4.0,11.5,62,0.00,FEW,,0.00,WeatherDisplay:10.37,2013-04-18 17:54:00,
2013-04-18 13:55:00,81.0,68.1,29.95,South,181,1.6,3.5,65,0.00,FEW,,0.00,WeatherDisplay:10.37,2013-04-18 17:55:00,
2013-04-18 13:57:00,81.4,66.7,29.95,SSW,196,12.1,15.0,61,0.00,FEW,,0.00,WeatherDisplay:10.37,2013-04-18 17:57:00,
2013-04-18 13:59:00,81.8,67.5,29.95,SW,232,5.8,9.2,62,0.00,FEW,,0.00,WeatherDisplay:10.37,2013-04-18 17:59:00,
2013-04-18 14:00:00,82.1,67.8,29.95,SSW,198,7.2,13.8,62,0.00,FEW,,0.00,WeatherDisplay:10.37,2013-04-18 18:00:00,
2013-04-18 14:02:00,82.3,65.0,29.95,South,188,7.5,19.6,56,0.00,FEW,,0.00,WeatherDisplay:10.37,2013-04-18 18:02:00,
2013-04-18 14:04:00,82.7,66.9,29.94,SSE,148,4.2,11.5,59,0.00,FEW,,0.00,WeatherDisplay:10.37,2013-04-18 18:04:00,
2013-04-18 14:05:00,83.0,69.1,29.94,South,184,3.5,13.0,63,0.00,FEW,,0.00,WeatherDisplay:10.37,2013-04-18 18:05:00,
2013-04-18 14:06:00,83.1,65.8,29.94,SSW,201,9.7,12.7,56,0.00,FEW,,0.00,WeatherDisplay:10.37,2013-04-18 18:06:00,
2013-04-18 14:07:00,83.3,67.0,29.94,SSW,204,2.2,12.0,58,0.00,FEW,,0.00,WeatherDisplay:10.37,2013-04-18 18:07:00,
2013-04-18 14:09:00,83.4,67.1,29.94,SW,222,6.1,10.0,58,0.00,FEW,,0.00,WeatherDisplay:10.37,2013-04-18 18:09:00,
2013-04-18 14:10:00,83.5,67.7,29.94,SW,215,7.3,11.5,59,0.00,FEW,,0.00,WeatherDisplay:10.37,2013-04-18 18:10:00,
2013-04-18 14:11:00,83.5,67.7,29.94,South,189,0.8,6.9,59,0.00,FEW,,0.00,WeatherDisplay:10.37,2013-04-18 18:11:00,
2013-04-18 14:12:00,83.6,65.7,29.94,SSW,197,8.7,13.0,55,0.00,FEW,,0.00,WeatherDisplay:10.37,2013-04-18 18:12:00,
2013-04-18 14:14:00,83.5,65.1,29.94,SW,219,12.9,16.1,54,0.00,FEW,,0.00,WeatherDisplay:10.37,2013-04-18 18:14:00,
2013-04-18 14:15:00,83.5,66.2,29.94,SE,135,9.0,16.1,56,0.00,FEW,,0.00,WeatherDisplay:10.37,2013-04-18 18:15:00,
2013-04-18 14:17:00,83.7,65.8,29.94,SSW,201,11.8,16.1,55,0.00,FEW,,0.00,WeatherDisplay:10.37,2013-04-18 18:17:00,
2013-04-18 14:18:00,83.8,67.4,29.94,South,191,6.3,11.5,58,0.00,FEW,,0.00,WeatherDisplay:10.37,2013-04-18 18:18:00,
2013-04-18 14:19:00,83.6,66.2,29.94,SSW,203,8.7,9.2,56,0.00,FEW,,0.00,WeatherDisplay:10.37,2013-04-18 18:19:00,
2013-04-18 14:20:00,83.5,65.6,29.94,SSW,205,7.1,11.5,55,0.00,FEW,,0.00,WeatherDisplay:10.37,2013-04-18 18:20:00,
2013-04-18 14:21:00,83.2,65.9,29.94,South,191,5.1,12.7,56,0.00,FEW,,0.00,WeatherDisplay:10.37,2013-04-18 18:21:00,
2013-04-18 14:22:00,83.2,66.4,29.94,SSW,203,4.7,10.4,57,0.00,FEW,,0.00,WeatherDisplay:10.37,2013-04-18 18:22:00,
2013-04-18 14:23:00,83.1,66.3,29.94,South,177,4.0,12.7,57,0.00,FEW,,0.00,WeatherDisplay:10.37,2013-04-18 18:23:00,
2013-04-18 14:25:00,83.4,68.1,29.94,ESE,117,1.2,4.6,60,0.00,FEW,,0.00,WeatherDisplay:10.37,2013-04-18 18:25:00,
2013-04-18 14:27:00,84.0,69.6,29.93,SSE,151,5.3,9.2,62,0.00,FEW,,0.00,WeatherDisplay:10.37,2013-04-18 18:27:00,
2013-04-18 14:28:00,84.4,68.0,29.93,SE,140,2.5,6.9,58,0.00,FEW,,0.00,WeatherDisplay:10.37,2013-04-18 18:28:00,
2013-04-18 14:30:00,84.9,69.0,29.93,SSW,202,3.6,11.5,59,0.00,FEW,,0.00,WeatherDisplay:10.37,2013-04-18 18:30:00,
2013-04-18 14:32:00,85.6,69.1,29.93,SE,129,6.6,11.5,58,0.00,FEW,,0.00,WeatherDisplay:10.37,2013-04-18 18:32:00,
2013-04-18 14:33:00,85.8,69.3,29.93,SE,146,5.1,9.2,58,0.00,FEW,,0.00,WeatherDisplay:10.37,2013-04-18 18:33:00,
2013-04-18 14:35:00,85.6,67.6,29.93,SSE,151,9.1,13.8,55,0.00,FEW,,0.00,WeatherDisplay:10.37,2013-04-18 18:35:00,
2013-04-18 14:37:00,85.4,66.3,29.93,SSW,203,9.9,12.0,53,0.00,FEW,,0.00,WeatherDisplay:10.37,2013-04-18 18:37:00,
2013-04-18 14:38:00,85.2,65.0,29.93,SSW,195,9.1,12.7,51,0.00,FEW,,0.00,WeatherDisplay:10.37,2013-04-18 18:38:00,
2013-04-18 14:40:00,84.8,66.3,29.93,SE,146,5.9,12.7,54,0.00,FEW,,0.00,WeatherDisplay:10.37,2013-04-18 18:40:00,
2013-04-18 14:42:00,84.8,67.9,29.93,South,190,4.4,9.2,57,0.00,FEW,,0.00,WeatherDisplay:10.37,2013-04-18 18:42:00,
2013-04-18 14:43:00,85.1,68.2,29.93,SSW,192,4.3,7.0,57,0.00,FEW,,0.00,WeatherDisplay:10.37,2013-04-18 18:43:00,
2013-04-18 14:45:00,85.6,69.6,29.93,SE,137,2.6,8.1,59,0.00,FEW,,0.00,WeatherDisplay:10.37,2013-04-18 18:45:00,
2013-04-18 14:46:00,85.8,66.1,29.93,South,181,7.5,13.8,52,0.00,FEW,,0.00,WeatherDisplay:10.37,2013-04-18 18:46:00,
2013-04-18 14:47:00,85.9,65.1,29.93,SSW,195,9.4,17.3,50,0.00,FEW,,0.00,WeatherDisplay:10.37,2013-04-18 18:47:00,
2013-04-18 14:48:00,85.9,65.7,29.93,South,189,6.9,13.0,51,0.00,FEW,,0.00,WeatherDisplay:10.37,2013-04-18 18:48:00,
2013-04-18 14:50:00,85.9,66.2,29.93,SE,132,7.7,11.5,52,0.00,FEW,,0.00,WeatherDisplay:10.37,2013-04-18 18:50:00,
2013-04-18 14:52:00,86.0,68.0,29.93,SSE,148,1.2,9.2,55,0.00,FEW,,0.00,WeatherDisplay:10.37,2013-04-18 18:52:00,
2013-04-18 14:53:00,86.1,68.6,29.93,ESE,121,0.9,7.0,56,0.00,FEW,,0.00,WeatherDisplay:10.37,2013-04-18 18:53:00,
2013-04-18 14:54:00,86.5,68.9,29.93,ESE,107,10.7,16.1,56,0.00,FEW,,0.00,WeatherDisplay:10.37,2013-04-18 18:54:00,
2013-04-18 14:55:00,86.8,68.2,29.93,SE,127,7.1,12.7,54,0.00,FEW,,0.00,WeatherDisplay:10.37,2013-04-18 18:55:00,
2013-04-18 14:57:00,87.4,68.7,29.93,SSE,149,7.5,15.0,54,0.00,FEW,,0.00,WeatherDisplay:10.37,2013-04-18 18:57:00,
2013-04-18 14:58:00,87.4,68.7,29.93,SSE,154,7.6,15.0,54,0.00,FEW,,0.00,WeatherDisplay:10.37,2013-04-18 18:58:00,
2013-04-18 14:59:00,87.7,67.9,29.92,SSW,201,8.7,11.0,52,0.00,FEW,,0.00,WeatherDisplay:10.37,2013-04-18 18:59:00,
2013-04-18 15:00:00,87.8,67.4,29.93,SSE,156,2.1,17.3,51,0.00,FEW,,0.00,WeatherDisplay:10.37,2013-04-18 19:00:00,
2013-04-18 15:02:00,87.5,67.1,29.93,South,186,3.6,5.8,51,0.00,SCT,,0.00,WeatherDisplay:10.37,2013-04-18 19:02:00,
2013-04-18 15:03:00,87.5,67.1,29.93,SSW,193,4.1,9.2,51,0.00,SCT,,0.00,WeatherDisplay:10.37,2013-04-18 19:03:00,
2013-04-18 15:04:00,87.2,66.9,29.93,SSE,165,5.8,10.4,51,0.00,SCT,,0.00,WeatherDisplay:10.37,2013-04-18 19:04:00,
2013-04-18 15:05:00,87.0,67.2,29.92,South,188,5.8,11.5,52,0.00,SCT,,0.00,WeatherDisplay:10.37,2013-04-18 19:05:00,
2013-04-18 15:08:00,86.5,65.1,29.93,SSW,192,9.2,16.1,49,0.00,SCT,,0.00,WeatherDisplay:10.37,2013-04-18 19:08:00,
2013-04-18 15:09:00,86.4,65.6,29.92,SSW,201,9.0,15.0,50,0.00,SCT,,0.00,WeatherDisplay:10.37,2013-04-18 19:09:00,
2013-04-18 15:10:00,86.4,65.0,29.93,South,188,13.9,20.7,49,0.00,SCT,,0.00,WeatherDisplay:10.37,2013-04-18 19:10:00,
2013-04-18 15:11:00,86.4,65.6,29.93,SSE,161,10.8,19.6,50,0.00,SCT,,0.00,WeatherDisplay:10.37,2013-04-18 19:11:00,
2013-04-18 15:13:00,86.7,68.1,29.93,ESE,106,10.2,19.6,54,0.00,SCT,,0.00,WeatherDisplay:10.37,2013-04-18 19:13:00,
2013-04-18 15:14:00,87.2,67.4,29.93,SE,134,3.5,16.1,52,0.00,SCT,,0.00,WeatherDisplay:10.37,2013-04-18 19:14:00,
2013-04-18 15:15:00,87.5,66.6,29.92,SSW,201,8.3,17.3,50,0.00,SCT,,0.00,WeatherDisplay:10.37,2013-04-18 19:15:00,
2013-04-18 15:18:00,87.7,66.2,29.93,South,172,4.3,19.0,49,0.00,SCT,,0.00,WeatherDisplay:10.37,2013-04-18 19:18:00,
2013-04-18 15:19:00,87.6,64.3,29.93,SSW,203,16.2,24.0,46,0.00,SCT,,0.00,WeatherDisplay:10.37,2013-04-18 19:19:00,
2013-04-18 15:20:00,87.4,64.7,29.93,SSW,204,11.9,20.7,47,0.00,SCT,,0.00,WeatherDisplay:10.37,2013-04-18 19:20:00,
2013-04-18 15:23:00,87.1,64.4,29.93,South,188,8.6,13.8,47,0.00,SCT,,0.00,WeatherDisplay:10.37,2013-04-18 19:23:00,
2013-04-18 15:25:00,87.1,66.2,29.93,SSW,198,7.4,12.7,50,0.00,SCT,,0.00,WeatherDisplay:10.37,2013-04-18 19:25:00,
2013-04-18 15:28:00,87.0,64.9,29.92,SW,214,8.8,13.8,48,0.00,SCT,,0.00,WeatherDisplay:10.37,2013-04-18 19:28:00,
2013-04-18 15:30:00,87.1,66.8,29.92,South,185,6.3,12.7,51,0.00,SCT,,0.00,WeatherDisplay:10.37,2013-04-18 19:30:00,
2013-04-18 15:31:00,87.2,66.9,29.92,South,170,6.3,15.0,51,0.00,SCT,,0.00,WeatherDisplay:10.37,2013-04-18 19:31:00,
2013-04-18 15:33:00,87.3,64.0,29.93,SSW,201,13.1,21.9,46,0.00,SCT,,0.00,WeatherDisplay:10.37,2013-04-18 19:33:00,
2013-04-18 15:35:00,87.1,64.4,29.92,South,190,7.9,13.8,47,0.00,SCT,,0.00,WeatherDisplay:10.37,2013-04-18 19:35:00,
2013-04-18 15:36:00,87.1,64.4,29.92,South,190,8.5,12.7,47,0.00,SCT,,0.00,WeatherDisplay:10.37,2013-04-18 19:36:00,
2013-04-18 15:38:00,87.0,64.9,29.92,SSW,204,7.4,13.8,48,0.00,SCT,,0.00,WeatherDisplay:10.37,2013-04-18 19:38:00,
2013-04-18 15:39:00,87.0,64.3,29.92,SSW,195,12.8,14.0,47,0.00,SCT,,0.00,WeatherDisplay:10.37,2013-04-18 19:39:00,
2013-04-18 15:40:00,86.7,64.7,29.92,SSW,206,15.0,20.7,48,0.00,SCT,,0.00,WeatherDisplay:10.37,2013-04-18 19:40:00,
2013-04-18 15:41:00,86.7,63.4,29.92,SSW,195,15.7,24.2,46,0.00,SCT,,0.00,WeatherDisplay:10.37,2013-04-18 19:41:00,
2013-04-18 15:44:00,86.2,64.2,29.92,SSW,203,8.8,13.8,48,0.00,SCT,,0.00,WeatherDisplay:10.37,2013-04-18 19:44:00,
2013-04-18 15:47:00,86.0,63.4,29.92,South,173,8.2,15.0,47,0.00,SCT,,0.00,WeatherDisplay:10.37,2013-04-18 19:47:00,
2013-04-18 15:49:00,86.0,66.3,29.92,SSE,148,0.7,5.8,52,0.00,SCT,,0.00,WeatherDisplay:10.37,2013-04-18 19:49:00,
2013-04-18 15:52:00,86.1,64.1,29.92,SE,138,6.6,12.7,48,0.00,SCT,,0.00,WeatherDisplay:10.37,2013-04-18 19:52:00,
2013-04-18 15:54:00,86.2,65.4,29.92,South,171,6.6,11.5,50,0.00,SCT,,0.00,WeatherDisplay:10.37,2013-04-18 19:54:00,
2013-04-18 15:55:00,86.2,65.4,29.92,SSW,194,4.2,12.7,50,0.00,SCT,,0.00,WeatherDisplay:10.37,2013-04-18 19:55:00,
2013-04-18 15:57:00,86.2,65.9,29.92,SE,140,7.5,11.5,51,0.00,SCT,,0.00,WeatherDisplay:10.37,2013-04-18 19:57:00,
2013-04-18 15:59:00,86.2,64.8,29.92,South,187,6.2,10.0,49,0.00,SCT,,0.00,WeatherDisplay:10.37,2013-04-18 19:59:00,
2013-04-18 16:00:00,86.3,64.9,29.92,South,172,6.3,11.5,49,0.00,SCT,,0.00,WeatherDisplay:10.37,2013-04-18 20:00:00,
2013-04-18 16:02:00,86.8,65.9,29.91,South,189,6.0,6.9,50,0.00,SCT,,0.00,WeatherDisplay:10.37,2013-04-18 20:02:00,
2013-04-18 16:05:00,86.9,66.6,29.91,South,188,2.8,6.9,51,0.00,SCT,,0.00,WeatherDisplay:10.37,2013-04-18 20:05:00,
2013-04-18 16:07:00,86.6,64.0,29.91,South,174,8.7,15.0,47,0.00,SCT,,0.00,WeatherDisplay:10.37,2013-04-18 20:07:00,
2013-04-18 16:08:00,86.5,63.9,29.91,SE,141,7.5,15.0,47,0.00,SCT,,0.00,WeatherDisplay:10.37,2013-04-18 20:08:00,
2013-04-18 16:10:00,86.2,64.8,29.91,SW,217,8.4,11.5,49,0.00,SCT,,0.00,WeatherDisplay:10.37,2013-04-18 20:10:00,
2013-04-18 16:13:00,85.7,64.3,29.91,SSW,201,8.7,15.0,49,0.00,SCT,,0.00,WeatherDisplay:10.37,2013-04-18 20:13:00,
2013-04-18 16:15:00,85.4,64.1,29.91,SSW,199,11.7,17.3,49,0.00,SCT,,0.00,WeatherDisplay:10.37,2013-04-18 20:15:00,
2013-04-18 16:16:00,85.4,62.9,29.91,SW,214,11.5,17.3,47,0.00,SCT,,0.00,WeatherDisplay:10.37,2013-04-18 20:16:00,
2013-04-18 16:18:00,85.5,63.6,29.90,SSW,211,9.7,12.7,48,0.00,SCT,,0.00,WeatherDisplay:10.37,2013-04-18 20:18:00,
2013-04-18 16:20:00,85.7,63.1,29.91,SE,139,8.6,15.0,47,0.00,SCT,,0.00,WeatherDisplay:10.37,2013-04-18 20:20:00,
2013-04-18 16:21:00,86.0,65.8,29.90,South,172,0.7,15.0,51,0.00,SCT,,0.00,WeatherDisplay:10.37,2013-04-18 20:21:00,
2013-04-18 16:23:00,86.2,64.8,29.90,SSE,168,5.4,5.4,49,0.00,SCT,,0.00,WeatherDisplay:10.37,2013-04-18 20:23:00,
2013-04-18 16:25:00,86.2,64.8,29.91,SSW,195,3.8,8.0,49,0.00,SCT,,0.00,WeatherDisplay:10.37,2013-04-18 20:25:00,
2013-04-18 16:26:00,86.1,64.7,29.90,SSW,207,3.8,13.8,49,0.00,SCT,,0.00,WeatherDisplay:10.37,2013-04-18 20:26:00,
2013-04-18 16:28:00,86.0,63.4,29.90,SW,226,8.6,16.1,47,0.00,SCT,,0.00,WeatherDisplay:10.37,2013-04-18 20:28:00,
2013-04-18 16:30:00,85.5,63.0,29.90,SW,216,12.1,17.3,47,0.00,SCT,,0.00,WeatherDisplay:10.37,2013-04-18 20:30:00,
2013-04-18 16:31:00,85.3,64.0,29.90,SSW,210,15.7,17.3,49,0.00,SCT,,0.00,WeatherDisplay:10.37,2013-04-18 20:31:00,
2013-04-18 16:32:00,85.0,63.1,29.91,SSW,194,15.0,20.7,48,0.00,SCT,,0.00,WeatherDisplay:10.37,2013-04-18 20:32:00,
2013-04-18 16:33:00,84.8,64.1,29.90,SE,138,3.3,9.2,50,0.00,SCT,,0.00,WeatherDisplay:10.37,2013-04-18 20:33:00,
2013-04-18 16:34:00,84.8,64.7,29.90,ESE,122,5.3,9.2,51,0.00,SCT,,0.00,WeatherDisplay:10.37,2013-04-18 20:34:00,
2013-04-18 16:37:00,84.8,65.8,29.90,SE,138,2.4,5.8,53,0.00,SCT,,0.00,WeatherDisplay:10.37,2013-04-18 20:37:00,
2013-04-18 16:39:00,84.9,65.3,29.90,SE,135,4.4,12.7,52,0.00,SCT,,0.00,WeatherDisplay:10.37,2013-04-18 20:39:00,
2013-04-18 16:42:00,85.1,64.4,29.90,SSW,198,3.6,11.5,50,0.00,SCT,,0.00,WeatherDisplay:10.37,2013-04-18 20:42:00,
2013-04-18 16:44:00,85.6,66.5,29.90,South,186,3.1,5.8,53,0.00,SCT,,0.00,WeatherDisplay:10.37,2013-04-18 20:44:00,
2013-04-18 16:47:00,86.2,66.5,29.90,SSE,152,1.4,6.9,52,0.00,SCT,,0.00,WeatherDisplay:10.37,2013-04-18 20:47:00,
2013-04-18 16:48:00,86.4,66.7,29.90,SE,137,4.7,11.5,52,0.00,SCT,,0.00,WeatherDisplay:10.37,2013-04-18 20:48:00,
2013-04-18 16:49:00,86.5,66.8,29.90,SE,126,4.3,8.1,52,0.00,SCT,,0.00,WeatherDisplay:10.37,2013-04-18 20:49:00,
2013-04-18 16:52:00,86.8,65.3,29.90,South,180,4.3,9.2,49,0.00,SCT,,0.00,WeatherDisplay:10.37,2013-04-18 20:52:00,
2013-04-18 16:53:00,86.8,65.3,29.90,SE,143,3.0,12.7,49,0.00,SCT,,0.00,WeatherDisplay:10.37,2013-04-18 20:53:00,
2013-04-18 16:54:00,87.0,67.2,29.90,SE,128,2.2,8.1,52,0.00,SCT,,0.00,WeatherDisplay:10.37,2013-04-18 20:54:00,
2013-04-18 16:57:00,86.9,64.2,29.89,SSW,205,10.1,13.8,47,0.00,SCT,,0.00,WeatherDisplay:10.37,2013-04-18 20:57:00,
2013-04-18 16:58:00,86.7,63.4,29.90,SSW,209,10.3,15.0,46,0.00,SCT,,0.00,WeatherDisplay:10.37,2013-04-18 20:58:00,
2013-04-18 16:59:00,86.6,65.2,29.89,SSE,167,5.6,15.0,49,0.00,SCT,,0.00,WeatherDisplay:10.37,2013-04-18 20:59:00,
2013-04-18 17:02:00,86.4,65.6,29.89,SSE,149,2.7,9.2,50,0.00,BKN,,0.00,WeatherDisplay:10.37,2013-04-18 21:02:00,
2013-04-18 17:03:00,86.4,65.6,29.89,South,181,2.1,9.2,50,0.00,BKN,,0.00,WeatherDisplay:10.37,2013-04-18 21:03:00,
2013-04-18 17:04:00,86.4,65.6,29.89,SE,127,6.1,7.0,50,0.00,BKN,,0.00,WeatherDisplay:10.37,2013-04-18 21:04:00,
2013-04-18 17:05:00,86.4,65.6,29.89,SE,130,7.7,11.5,50,0.00,BKN,,0.00,WeatherDisplay:10.37,2013-04-18 21:05:00,
2013-04-18 17:08:00,86.4,65.6,29.89,SE,134,4.4,12.0,50,0.00,BKN,,0.00,WeatherDisplay:10.37,2013-04-18 21:08:00,
2013-04-18 17:09:00,86.5,65.1,29.89,South,184,5.7,11.5,49,0.00,BKN,,0.00,WeatherDisplay:10.37,2013-04-18 21:09:00,
2013-04-18 17:10:00,86.5,65.1,29.89,SE,124,7.5,16.1,49,0.00,BKN,,0.00,WeatherDisplay:10.37,2013-04-18 21:10:00,
2013-04-18 17:13:00,86.2,64.8,29.89,South,182,0.2,9.2,49,0.00,BKN,,0.00,WeatherDisplay:10.37,2013-04-18 21:13:00,
2013-04-18 17:14:00,86.2,64.8,29.89,SSW,192,2.3,6.0,49,0.00,BKN,,0.00,WeatherDisplay:10.37,2013-04-18 21:14:00,
2013-04-18 17:15:00,86.3,66.0,29.89,SE,142,2.2,8.1,51,0.00,BKN,,0.00,WeatherDisplay:10.37,2013-04-18 21:15:00,
2013-04-18 17:19:00,85.9,64.5,29.89,SSW,212,9.5,16.1,49,0.00,BKN,,0.00,WeatherDisplay:10.37,2013-04-18 21:19:00,
2013-04-18 17:20:00,85.6,63.7,29.89,SSW,196,9.1,17.3,48,0.00,BKN,,0.00,WeatherDisplay:10.37,2013-04-18 21:20:00,
2013-04-18 17:24:00,85.5,65.3,29.89,SE,129,4.4,4.6,51,0.00,BKN,,0.00,WeatherDisplay:10.37,2013-04-18 21:24:00,
2013-04-18 17:25:00,85.5,65.3,29.89,SE,146,5.1,8.1,51,0.00,BKN,,0.00,WeatherDisplay:10.37,2013-04-18 21:25:00,
2013-04-18 17:26:00,85.5,65.3,29.89,SSE,150,1.4,10.4,51,0.00,BKN,,0.00,WeatherDisplay:10.37,2013-04-18 21:26:00,
2013-04-18 17:29:00,85.5,64.2,29.89,SSW,194,3.3,6.0,49,0.00,BKN,,0.00,WeatherDisplay:10.37,2013-04-18 21:29:00,
2013-04-18 17:30:00,85.4,64.1,29.89,South,189,2.9,5.8,49,0.00,BKN,,0.00,WeatherDisplay:10.37,2013-04-18 21:30:00,
2013-04-18 17:31:00,85.2,65.0,29.89,SSW,197,3.1,7.0,51,0.00,BKN,,0.00,WeatherDisplay:10.37,2013-04-18 21:31:00,
2013-04-18 17:34:00,84.9,63.6,29.89,South,171,4.8,4.8,49,0.00,BKN,,0.00,WeatherDisplay:10.37,2013-04-18 21:34:00,
2013-04-18 17:35:00,84.9,63.6,29.89,SSW,194,5.1,12.0,49,0.00,BKN,,0.00,WeatherDisplay:10.37,2013-04-18 21:35:00,
2013-04-18 17:38:00,84.7,65.1,29.89,SSW,200,1.3,5.8,52,0.00,BKN,,0.00,WeatherDisplay:10.37,2013-04-18 21:38:00,
2013-04-18 17:40:00,84.9,64.8,29.89,South,182,1.8,3.5,51,0.00,BKN,,0.00,WeatherDisplay:10.37,2013-04-18 21:40:00,
2013-04-18 17:41:00,85.0,63.7,29.89,SSW,197,12.2,17.0,49,0.00,BKN,,0.00,WeatherDisplay:10.37,2013-04-18 21:41:00,
2013-04-18 17:43:00,85.1,63.2,29.88,South,187,7.7,11.5,48,0.00,BKN,,0.00,WeatherDisplay:10.37,2013-04-18 21:43:00,
2013-04-18 17:45:00,85.3,65.1,29.88,SSE,151,2.1,3.5,51,0.00,BKN,,0.00,WeatherDisplay:10.37,2013-04-18 21:45:00,
2013-04-18 17:46:00,85.4,64.1,29.88,South,173,10.2,18.4,49,0.00,BKN,,0.00,WeatherDisplay:10.37,2013-04-18 21:46:00,
2013-04-18 17:49:00,85.6,64.8,29.89,South,187,5.9,10.4,50,0.00,BKN,,0.00,WeatherDisplay:10.37,2013-04-18 21:49:00,
2013-04-18 17:50:00,85.6,61.8,29.88,South,190,12.5,18.4,45,0.00,BKN,,0.00,WeatherDisplay:10.37,2013-04-18 21:50:00,
2013-04-18 17:52:00,85.6,64.2,29.88,SSW,197,7.2,12.0,49,0.00,BKN,,0.00,WeatherDisplay:10.37,2013-04-18 21:52:00,
2013-04-18 17:55:00,85.6,64.2,29.88,SSW,198,7.9,13.0,49,0.00,BKN,,0.00,WeatherDisplay:10.37,2013-04-18 21:55:00,
2013-04-18 17:56:00,85.6,63.1,29.89,SSW,202,13.0,18.0,47,0.00,BKN,,0.00,WeatherDisplay:10.37,2013-04-18 21:56:00,
2013-04-18 17:58:00,85.6,62.4,29.89,SW,216,11.0,19.6,46,0.00,BKN,,0.00,WeatherDisplay:10.37,2013-04-18 21:58:00,
2013-04-18 18:00:00,85.7,63.1,29.88,SSW,199,6.6,11.5,47,0.00,BKN,,0.00,WeatherDisplay:10.37,2013-04-18 22:00:00,
2013-04-18 18:01:00,85.8,63.8,29.89,South,190,8.2,11.5,48,0.00,BKN,,0.00,WeatherDisplay:10.37,2013-04-18 22:01:00,
2013-04-18 18:02:00,85.8,63.8,29.88,SW,223,6.6,13.8,48,0.00,BKN,,0.00,WeatherDisplay:10.37,2013-04-18 22:02:00,
2013-04-18 18:03:00,85.9,62.7,29.88,SSW,205,10.4,17.3,46,0.00,BKN,,0.00,WeatherDisplay:10.37,2013-04-18 22:03:00,
2013-04-18 18:05:00,85.7,63.1,29.88,WSW,239,10.2,12.7,47,0.00,BKN,,0.00,WeatherDisplay:10.37,2013-04-18 22:05:00,
2013-04-18 18:06:00,85.6,61.8,29.88,SW,217,10.1,16.1,45,0.00,BKN,,0.00,WeatherDisplay:10.37,2013-04-18 22:06:00,
2013-04-18 18:07:00,85.5,62.4,29.88,SSW,202,10.4,17.3,46,0.00,BKN,,0.00,WeatherDisplay:10.37,2013-04-18 22:07:00,
2013-04-18 18:08:00,85.4,63.5,29.88,SSW,204,10.0,20.7,48,0.00,BKN,,0.00,WeatherDisplay:10.37,2013-04-18 22:08:00,
2013-04-18 18:11:00,85.3,63.4,29.88,SSW,199,7.0,13.8,48,0.00,BKN,,0.00,WeatherDisplay:10.37,2013-04-18 22:11:00,
2013-04-18 18:12:00,85.2,63.3,29.88,SW,222,5.4,10.4,48,0.00,BKN,,0.00,WeatherDisplay:10.37,2013-04-18 22:12:00,
2013-04-18 18:13:00,85.2,63.9,29.88,SSW,199,5.9,9.2,49,0.00,BKN,,0.00,WeatherDisplay:10.37,2013-04-18 22:13:00,
2013-04-18 18:16:00,84.9,63.0,29.88,SW,222,7.2,12.0,48,0.00,BKN,,0.00,WeatherDisplay:10.37,2013-04-18 22:16:00,
2013-04-18 18:17:00,84.8,63.5,29.88,SSW,210,8.3,16.1,49,0.00,BKN,,0.00,WeatherDisplay:10.37,2013-04-18 22:17:00,
2013-04-18 18:18:00,84.6,62.7,29.88,SW,216,7.2,12.7,48,0.00,BKN,,0.00,WeatherDisplay:10.37,2013-04-18 22:18:00,
2013-04-18 18:21:00,84.2,63.0,29.88,SSW,201,5.2,9.2,49,0.00,BKN,,0.00,WeatherDisplay:10.37,2013-04-18 22:21:00,
2013-04-18 18:22:00,84.1,62.9,29.88,South,187,3.7,6.9,49,0.00,BKN,,0.00,WeatherDisplay:10.37,2013-04-18 22:22:00,
2013-04-18 18:23:00,84.2,64.1,29.88,SSW,201,2.7,7.0,51,0.00,BKN,,0.00,WeatherDisplay:10.37,2013-04-18 22:23:00,
2013-04-18 18:26:00,84.1,62.9,29.87,South,186,6.1,11.5,49,0.00,BKN,,0.00,WeatherDisplay:10.37,2013-04-18 22:26:00,
2013-04-18 18:27:00,84.0,63.4,29.88,SSE,160,2.5,8.1,50,0.00,BKN,,0.00,WeatherDisplay:10.37,2013-04-18 22:27:00,
2013-04-18 18:29:00,84.0,62.8,29.87,SSW,205,6.5,9.2,49,0.00,BKN,,0.00,WeatherDisplay:10.37,2013-04-18 22:29:00,
2013-04-18 18:31:00,83.9,62.7,29.87,SW,223,8.4,11.5,49,0.00,BKN,,0.00,WeatherDisplay:10.37,2013-04-18 22:31:00,
2013-04-18 18:32:00,83.8,62.0,29.87,SSW,207,15.7,23.0,48,0.00,BKN,,0.00,WeatherDisplay:10.37,2013-04-18 22:32:00,
2013-04-18 18:33:00,83.7,61.9,29.87,SSW,213,17.6,23.0,48,0.00,BKN,,0.00,WeatherDisplay:10.37,2013-04-18 22:33:00,
2013-04-18 18:34:00,83.6,62.4,29.87,SSW,195,7.8,16.1,49,0.00,BKN,,0.00,WeatherDisplay:10.37,2013-04-18 22:34:00,
2013-04-18 18:36:00,83.4,62.2,29.87,SSW,195,9.3,9.3,49,0.00,BKN,,0.00,WeatherDisplay:10.37,2013-04-18 22:36:00,
2013-04-18 18:37:00,83.3,62.1,29.87,SSW,196,7.0,13.8,49,0.00,BKN,,0.00,WeatherDisplay:10.37,2013-04-18 22:37:00,
2013-04-18 18:38:00,83.2,62.1,29.87,SSW,201,7.5,10.4,49,0.00,BKN,,0.00,WeatherDisplay:10.37,2013-04-18 22:38:00,
2013-04-18 18:39:00,83.1,62.5,29.87,SSW,193,4.9,11.0,50,0.00,BKN,,0.00,WeatherDisplay:10.37,2013-04-18 22:39:00,
2013-04-18 18:41:00,82.9,62.9,29.88,SSW,198,2.0,10.4,51,0.00,BKN,,0.00,WeatherDisplay:10.37,2013-04-18 22:41:00,
2013-04-18 18:42:00,82.8,62.3,29.87,SSW,201,4.8,5.8,50,0.00,BKN,,0.00,WeatherDisplay:10.37,2013-04-18 22:42:00,
2013-04-18 18:43:00,82.8,62.8,29.87,SSW,203,4.9,9.2,51,0.00,BKN,,0.00,WeatherDisplay:10.37,2013-04-18 22:43:00,
2013-04-18 18:44:00,82.8,62.3,29.88,SW,232,6.3,11.5,50,0.00,BKN,,0.00,WeatherDisplay:10.37,2013-04-18 22:44:00,
2013-04-18 18:46:00,82.5,62.0,29.87,SSW,202,14.8,19.6,50,0.00,BKN,,0.00,WeatherDisplay:10.37,2013-04-18 22:46:00,
2013-04-18 18:47:00,82.5,62.0,29.87,SW,215,10.5,19.6,50,0.00,BKN,,0.00,WeatherDisplay:10.37,2013-04-18 22:47:00,
2013-04-18 18:48:00,82.4,62.5,29.87,SSW,211,10.6,12.7,51,0.00,BKN,,0.00,WeatherDisplay:10.37,2013-04-18 22:48:00,
2013-04-18 18:49:00,82.4,62.5,29.87,SSW,195,7.5,12.7,51,0.00,BKN,,0.00,WeatherDisplay:10.37,2013-04-18 22:49:00,
2013-04-18 18:52:00,82.2,63.4,29.87,SSW,212,2.2,3.5,53,0.00,BKN,,0.00,WeatherDisplay:10.37,2013-04-18 22:52:00,
2013-04-18 18:53:00,82.1,62.7,29.87,South,191,1.7,3.5,52,0.00,BKN,,0.00,WeatherDisplay:10.37,2013-04-18 22:53:00,
2013-04-18 18:54:00,82.1,63.3,29.87,SSW,200,2.9,3.5,53,0.00,BKN,,0.00,WeatherDisplay:10.37,2013-04-18 22:54:00,
2013-04-18 18:57:00,81.9,62.5,29.87,SSW,196,4.6,9.2,52,0.00,BKN,,0.00,WeatherDisplay:10.37,2013-04-18 22:57:00,
2013-04-18 18:58:00,81.8,62.5,29.87,SW,232,1.6,5.8,52,0.00,BKN,,0.00,WeatherDisplay:10.37,2013-04-18 22:58:00,
2013-04-18 18:59:00,81.8,63.0,29.87,SW,230,4.1,6.9,53,0.00,BKN,,0.00,WeatherDisplay:10.37,2013-04-18 22:59:00,
2013-04-18 19:02:00,81.6,62.3,29.87,SW,214,8.1,15.0,52,0.00,BKN,,0.00,WeatherDisplay:10.37,2013-04-18 23:02:00,
2013-04-18 19:03:00,81.6,62.3,29.87,South,191,6.5,11.5,52,0.00,BKN,,0.00,WeatherDisplay:10.37,2013-04-18 23:03:00,
2013-04-18 19:04:00,81.5,62.2,29.87,SSW,204,3.7,11.5,52,0.00,BKN,,0.00,WeatherDisplay:10.37,2013-04-18 23:04:00,
2013-04-18 19:07:00,81.3,62.0,29.87,SW,219,6.2,11.5,52,0.00,BKN,,0.00,WeatherDisplay:10.37,2013-04-18 23:07:00,
2013-04-18 19:08:00,81.2,62.4,29.86,SSW,192,6.3,10.4,53,0.00,BKN,,0.00,WeatherDisplay:10.37,2013-04-18 23:08:00,
2013-04-18 19:09:00,81.2,61.9,29.86,SSW,209,7.8,11.5,52,0.00,BKN,,0.00,WeatherDisplay:10.37,2013-04-18 23:09:00,
2013-04-18 19:12:00,81.0,62.3,29.86,SSW,194,7.8,9.2,53,0.00,BKN,,0.00,WeatherDisplay:10.37,2013-04-18 23:12:00,
2013-04-18 19:13:00,80.9,62.2,29.86,SSW,196,7.6,11.5,53,0.00,BKN,,0.00,WeatherDisplay:10.37,2013-04-18 23:13:00,
2013-04-18 19:14:00,80.9,62.2,29.86,South,186,3.3,11.5,53,0.00,BKN,,0.00,WeatherDisplay:10.37,2013-04-18 23:14:00,
2013-04-18 19:15:00,80.8,62.1,29.86,SSW,193,2.9,4.6,53,0.00,BKN,,0.00,WeatherDisplay:10.37,2013-04-18 23:15:00,
2013-04-18 19:17:00,80.8,62.1,29.86,SSW,193,6.8,9.2,53,0.00,BKN,,0.00,WeatherDisplay:10.37,2013-04-18 23:17:00,
2013-04-18 19:19:00,80.7,62.5,29.86,SW,216,3.5,6.9,54,0.00,BKN,,0.00,WeatherDisplay:10.37,2013-04-18 23:19:00,
2013-04-18 19:20:00,80.7,62.0,29.86,SSW,193,2.7,6.0,53,0.00,BKN,,0.00,WeatherDisplay:10.37,2013-04-18 23:20:00,
2013-04-18 19:22:00,80.5,61.8,29.86,SSW,199,9.1,11.5,53,0.00,BKN,,0.00,WeatherDisplay:10.37,2013-04-18 23:22:00,
2013-04-18 19:24:00,80.4,61.7,29.86,SSW,199,5.3,9.2,53,0.00,BKN,,0.00,WeatherDisplay:10.37,2013-04-18 23:24:00,
2013-04-18 19:25:00,80.3,61.6,29.86,SSW,197,4.4,8.1,53,0.00,BKN,,0.00,WeatherDisplay:10.37,2013-04-18 23:25:00,
2013-04-18 19:28:00,80.2,62.0,29.86,SSW,202,3.7,9.2,54,0.00,BKN,,0.00,WeatherDisplay:10.37,2013-04-18 23:28:00,
2013-04-18 19:29:00,80.1,62.0,29.86,South,183,1.5,4.6,54,0.00,BKN,,0.00,WeatherDisplay:10.37,2013-04-18 23:29:00,
2013-04-18 19:30:00,80.1,62.5,29.86,SSW,194,3.9,10.0,55,0.00,BKN,,0.00,WeatherDisplay:10.37,2013-04-18 23:30:00,
2013-04-18 19:31:00,80.0,61.9,29.85,South,191,6.1,10.4,54,0.00,BKN,,0.00,WeatherDisplay:10.37,2013-04-18 23:31:00,
2013-04-18 19:33:00,79.9,61.8,29.86,SSW,199,4.7,5.8,54,0.00,BKN,,0.00,WeatherDisplay:10.37,2013-04-18 23:33:00,
2013-04-18 19:34:00,79.9,61.8,29.86,SSW,205,5.2,10.4,54,0.00,BKN,,0.00,WeatherDisplay:10.37,2013-04-18 23:34:00,
2013-04-18 19:35:00,79.8,61.7,29.86,SSW,197,8.3,11.5,54,0.00,BKN,,0.00,WeatherDisplay:10.37,2013-04-18 23:35:00,
2013-04-18 19:36:00,79.8,61.7,29.85,SSW,200,4.2,11.5,54,0.00,BKN,,0.00,WeatherDisplay:10.37,2013-04-18 23:36:00,
2013-04-18 19:38:00,79.7,61.6,29.85,SSW,196,7.4,13.8,54,0.00,BKN,,0.00,WeatherDisplay:10.37,2013-04-18 23:38:00,
2013-04-18 19:40:00,79.7,61.6,29.85,South,188,1.0,3.5,54,0.00,BKN,,0.00,WeatherDisplay:10.37,2013-04-18 23:40:00,
2013-04-18 19:41:00,79.7,62.1,29.85,South,170,3.1,4.6,55,0.00,BKN,,0.00,WeatherDisplay:10.37,2013-04-18 23:41:00,
2013-04-18 19:44:00,79.5,61.9,29.85,SSW,199,3.5,6.0,55,0.00,BKN,,0.00,WeatherDisplay:10.37,2013-04-18 23:44:00,
2013-04-18 19:45:00,79.5,61.9,29.85,South,186,4.5,8.0,55,0.00,BKN,,0.00,WeatherDisplay:10.37,2013-04-18 23:45:00,
2013-04-18 19:46:00,79.4,61.8,29.85,SSE,166,2.8,8.1,55,0.00,BKN,,0.00,WeatherDisplay:10.37,2013-04-18 23:46:00,
2013-04-18 19:49:00,79.4,62.3,29.85,SSE,152,0.0,1.1,56,0.00,BKN,,0.00,WeatherDisplay:10.37,2013-04-18 23:49:00,
2013-04-18 19:50:00,79.4,62.3,29.85,South,185,1.2,3.5,56,0.00,BKN,,0.00,WeatherDisplay:10.37,2013-04-18 23:50:00,
2013-04-18 19:51:00,79.4,62.3,29.85,South,185,1.4,5.0,56,0.00,BKN,,0.00,WeatherDisplay:10.37,2013-04-18 23:51:00,
2013-04-18 19:54:00,79.4,62.3,29.85,South,191,0.2,3.5,56,0.00,BKN,,0.00,WeatherDisplay:10.37,2013-04-18 23:54:00,
2013-04-18 19:55:00,79.4,62.3,29.85,South,187,0.3,4.0,56,0.00,BKN,,0.00,WeatherDisplay:10.37,2013-04-18 23:55:00,
2013-04-18 19:56:00,79.4,62.8,29.85,South,187,0.8,3.5,57,0.00,BKN,,0.00,WeatherDisplay:10.37,2013-04-18 23:56:00,
2013-04-18 19:57:00,79.3,62.7,29.85,South,187,0.2,3.5,57,0.00,BKN,,0.00,WeatherDisplay:10.37,2013-04-18 23:57:00,
2013-04-18 19:59:00,79.3,62.2,29.85,South,188,1.4,6.0,56,0.00,BKN,,0.00,WeatherDisplay:10.37,2013-04-18 23:59:00,
2013-04-18 20:01:00,79.2,62.1,29.85,SSW,196,1.9,4.6,56,0.00,BKN,,0.00,WeatherDisplay:10.37,2013-04-19 00:01:00,
2013-04-18 20:02:00,79.1,62.1,29.85,South,191,1.4,6.0,56,0.00,BKN,,0.00,WeatherDisplay:10.37,2013-04-19 00:02:00,
2013-04-18 20:04:00,79.0,62.0,29.85,South,180,2.8,4.6,56,0.00,BKN,,0.00,WeatherDisplay:10.37,2013-04-19 00:04:00,
2013-04-18 20:06:00,78.9,61.9,29.85,South,189,1.1,6.9,56,0.00,BKN,,0.00,WeatherDisplay:10.37,2013-04-19 00:06:00,
2013-04-18 20:07:00,78.8,61.8,29.85,South,189,1.1,2.3,56,0.00,BKN,,0.00,WeatherDisplay:10.37,2013-04-19 00:07:00,
2013-04-18 20:08:00,78.8,62.3,29.85,South,186,3.0,4.6,57,0.00,BKN,,0.00,WeatherDisplay:10.37,2013-04-19 00:08:00,
2013-04-18 20:09:00,78.7,61.7,29.85,South,189,0.8,5.8,56,0.00,BKN,,0.00,WeatherDisplay:10.37,2013-04-19 00:09:00,
2013-04-18 20:11:00,78.6,62.1,29.85,SSW,201,2.2,5.0,57,0.00,BKN,,0.00,WeatherDisplay:10.37,2013-04-19 00:11:00,
2013-04-18 20:12:00,78.5,61.5,29.85,SSW,194,4.1,5.8,56,0.00,BKN,,0.00,WeatherDisplay:10.37,2013-04-19 00:12:00,
2013-04-18 20:13:00,78.5,61.5,29.85,SSW,195,3.0,5.8,56,0.00,BKN,,0.00,WeatherDisplay:10.37,2013-04-19 00:13:00,
2013-04-18 20:14:00,78.5,62.0,29.85,South,188,1.3,7.0,57,0.00,BKN,,0.00,WeatherDisplay:10.37,2013-04-19 00:14:00,
2013-04-18 20:16:00,78.4,61.9,29.85,SSW,197,2.2,6.9,57,0.00,BKN,,0.00,WeatherDisplay:10.37,2013-04-19 00:16:00,
2013-04-18 20:17:00,78.3,61.8,29.85,SSW,192,2.9,3.5,57,0.00,BKN,,0.00,WeatherDisplay:10.37,2013-04-19 00:17:00,
2013-04-18 20:18:00,78.3,61.8,29.85,South,189,2.4,4.6,57,0.00,BKN,,0.00,WeatherDisplay:10.37,2013-04-19 00:18:00,
2013-04-18 20:19:00,78.2,61.7,29.85,South,189,0.7,3.5,57,0.00,BKN,,0.00,WeatherDisplay:10.37,2013-04-19 00:19:00,
2013-04-18 20:22:00,78.1,61.6,29.85,SSW,195,2.5,5.8,57,0.00,BKN,,0.00,WeatherDisplay:10.37,2013-04-19 00:22:00,
2013-04-18 20:23:00,78.1,61.6,29.85,SSW,198,1.0,3.5,57,0.00,BKN,,0.00,WeatherDisplay:10.37,2013-04-19 00:23:00,
2013-04-18 20:24:00,78.0,62.0,29.85,SSW,198,0.0,1.1,58,0.00,BKN,,0.00,WeatherDisplay:10.37,2013-04-19 00:24:00,
2013-04-18 20:27:00,78.0,62.0,29.85,SSW,195,2.4,5.0,58,0.00,BKN,,0.00,WeatherDisplay:10.37,2013-04-19 00:27:00,
2013-04-18 20:28:00,77.9,61.9,29.86,South,189,3.9,5.0,58,0.00,BKN,,0.00,WeatherDisplay:10.37,2013-04-19 00:28:00,
2013-04-18 20:30:00,77.8,61.8,29.86,SSW,198,3.4,6.9,58,0.00,BKN,,0.00,WeatherDisplay:10.37,2013-04-19 00:30:00,
2013-04-18 20:32:00,77.7,61.7,29.86,SSW,193,3.1,4.6,58,0.00,BKN,,0.00,WeatherDisplay:10.37,2013-04-19 00:32:00,
2013-04-18 20:33:00,77.6,62.1,29.86,SSW,200,4.4,6.9,59,0.00,BKN,,0.00,WeatherDisplay:10.37,2013-04-19 00:33:00,
2013-04-18 20:35:00,77.5,61.6,29.86,SSW,200,1.0,9.2,58,0.00,BKN,,0.00,WeatherDisplay:10.37,2013-04-19 00:35:00,
2013-04-18 20:38:00,77.5,62.0,29.86,South,175,0.3,2.3,59,0.00,BKN,,0.00,WeatherDisplay:10.37,2013-04-19 00:38:00,
2013-04-18 20:39:00,77.4,62.4,29.85,SSE,156,0.2,2.3,60,0.00,BKN,,0.00,WeatherDisplay:10.37,2013-04-19 00:39:00,
2013-04-18 20:40:00,77.4,61.9,29.85,SE,136,0.0,1.1,59,0.00,BKN,,0.00,WeatherDisplay:10.37,2013-04-19 00:40:00,
2013-04-18 20:43:00,77.3,62.3,29.85,SE,142,0.1,1.1,60,0.00,BKN,,0.00,WeatherDisplay:10.37,2013-04-19 00:43:00,
2013-04-18 20:44:00,77.3,62.8,29.85,SSE,163,0.9,3.5,61,0.00,BKN,,0.00,WeatherDisplay:10.37,2013-04-19 00:44:00,
2013-04-18 20:45:00,77.3,62.3,29.85,SE,139,0.4,4.0,60,0.00,BKN,,0.00,WeatherDisplay:10.37,2013-04-19 00:45:00,
2013-04-18 20:48:00,77.2,62.2,29.85,SW,214,1.6,4.6,60,0.00,BKN,,0.00,WeatherDisplay:10.37,2013-04-19 00:48:00,
2013-04-18 20:49:00,77.2,62.2,29.85,SSW,213,1.7,3.5,60,0.00,BKN,,0.00,WeatherDisplay:10.37,2013-04-19 00:49:00,
2013-04-18 20:50:00,77.1,62.6,29.85,South,187,2.3,4.6,61,0.00,BKN,,0.00,WeatherDisplay:10.37,2013-04-19 00:50:00,
2013-04-18 20:51:00,77.1,62.1,29.85,South,189,2.6,4.6,60,0.00,BKN,,0.00,WeatherDisplay:10.37,2013-04-19 00:51:00,
2013-04-18 20:53:00,76.9,62.0,29.85,SSW,197,1.7,3.5,60,0.00,BKN,,0.00,WeatherDisplay:10.37,2013-04-19 00:53:00,
2013-04-18 20:54:00,76.9,62.4,29.85,SSW,196,1.8,5.0,61,0.00,BKN,,0.00,WeatherDisplay:10.37,2013-04-19 00:54:00,
2013-04-18 20:55:00,76.9,62.0,29.85,SSW,194,1.3,4.6,60,0.00,BKN,,0.00,WeatherDisplay:10.37,2013-04-19 00:55:00,
2013-04-18 20:56:00,76.9,62.4,29.85,SSW,207,2.2,4.0,61,0.00,BKN,,0.00,WeatherDisplay:10.37,2013-04-19 00:56:00,
2013-04-18 20:59:00,76.8,61.9,29.85,SSW,202,2.7,10.4,60,0.00,BKN,,0.00,WeatherDisplay:10.37,2013-04-19 00:59:00,
2013-04-18 21:00:00,76.8,61.9,29.85,SSW,209,3.3,5.8,60,0.00,BKN,,0.00,WeatherDisplay:10.37,2013-04-19 01:00:00,
2013-04-18 21:01:00,76.8,61.9,29.85,SSW,197,2.2,4.0,60,0.00,OVC,,0.00,WeatherDisplay:10.37,2013-04-19 01:01:00,
2013-04-18 21:04:00,76.7,62.2,29.85,SSW,197,3.7,5.8,61,0.00,OVC,,0.00,WeatherDisplay:10.37,2013-04-19 01:04:00,
2013-04-18 21:05:00,76.7,62.2,29.85,SSW,193,3.2,5.8,61,0.00,OVC,,0.00,WeatherDisplay:10.37,2013-04-19 01:05:00,
2013-04-18 21:06:00,76.7,62.2,29.85,SSW,192,1.3,3.5,61,0.00,OVC,,0.00,WeatherDisplay:10.37,2013-04-19 01:06:00,
2013-04-18 21:09:00,76.6,62.1,29.85,SSW,197,1.4,5.8,61,0.00,OVC,,0.00,WeatherDisplay:10.37,2013-04-19 01:09:00,
2013-04-18 21:10:00,76.6,62.1,29.85,SSW,193,1.7,3.5,61,0.00,OVC,,0.00,WeatherDisplay:10.37,2013-04-19 01:10:00,
2013-04-18 21:11:00,76.5,62.0,29.85,South,191,1.7,3.5,61,0.00,OVC,,0.00,WeatherDisplay:10.37,2013-04-19 01:11:00,
2013-04-18 21:14:00,76.4,62.4,29.85,SSW,193,1.5,4.6,62,0.00,OVC,,0.00,WeatherDisplay:10.37,2013-04-19 01:14:00,
2013-04-18 21:15:00,76.4,62.4,29.85,SSW,194,1.0,4.6,62,0.00,OVC,,0.00,WeatherDisplay:10.37,2013-04-19 01:15:00,
2013-04-18 21:16:00,76.3,62.3,29.85,SSW,193,1.5,3.0,62,0.00,OVC,,0.00,WeatherDisplay:10.37,2013-04-19 01:16:00,
2013-04-18 21:20:00,76.2,62.2,29.85,South,190,2.0,3.5,62,0.00,OVC,,0.00,WeatherDisplay:10.37,2013-04-19 01:20:00,
2013-04-18 21:21:00,76.1,62.1,29.86,South,191,1.3,3.5,62,0.00,OVC,,0.00,WeatherDisplay:10.37,2013-04-19 01:21:00,
2013-04-18 21:25:00,75.9,62.4,29.86,South,191,0.2,3.5,63,0.00,OVC,,0.00,WeatherDisplay:10.37,2013-04-19 01:25:00,
2013-04-18 21:26:00,75.9,62.8,29.86,South,191,0.5,3.5,64,0.00,OVC,,0.00,WeatherDisplay:10.37,2013-04-19 01:26:00,
2013-04-18 21:30:00,75.6,63.0,29.86,South,191,0.0,0.0,65,0.00,OVC,,0.00,WeatherDisplay:10.37,2013-04-19 01:30:00,
2013-04-18 21:31:00,75.5,62.9,29.86,South,191,0.0,1.1,65,0.00,OVC,,0.00,WeatherDisplay:10.37,2013-04-19 01:31:00,
2013-04-18 21:35:00,75.2,63.1,29.86,South,191,0.1,1.1,66,0.00,OVC,,0.00,WeatherDisplay:10.37,2013-04-19 01:35:00,
2013-04-18 21:36:00,75.2,63.1,29.86,South,191,0.1,1.1,66,0.00,OVC,,0.00,WeatherDisplay:10.37,2013-04-19 01:36:00,
2013-04-18 21:37:00,75.1,63.0,29.86,South,191,0.0,0.0,66,0.00,OVC,,0.00,WeatherDisplay:10.37,2013-04-19 01:37:00,
2013-04-18 21:40:00,74.9,63.6,29.86,South,191,0.0,0.0,68,0.00,OVC,,0.00,WeatherDisplay:10.37,2013-04-19 01:40:00,
2013-04-18 21:41:00,74.8,63.5,29.86,South,191,0.0,0.0,68,0.00,OVC,,0.00,WeatherDisplay:10.37,2013-04-19 01:41:00,
2013-04-18 21:42:00,74.8,63.5,29.86,South,191,0.0,0.0,68,0.00,OVC,,0.00,WeatherDisplay:10.37,2013-04-19 01:42:00,
2013-04-18 21:46:00,74.3,63.1,29.86,South,191,0.0,0.0,68,0.00,OVC,,0.00,WeatherDisplay:10.37,2013-04-19 01:46:00,
2013-04-18 21:47:00,74.3,63.5,29.86,South,191,0.0,0.0,69,0.00,OVC,,0.00,WeatherDisplay:10.37,2013-04-19 01:47:00,
2013-04-18 21:51:00,73.9,63.1,29.86,South,191,0.0,0.0,69,0.00,OVC,,0.00,WeatherDisplay:10.37,2013-04-19 01:51:00,
2013-04-18 21:52:00,73.8,63.4,29.85,South,191,0.0,0.0,70,0.00,OVC,,0.00,WeatherDisplay:10.37,2013-04-19 01:52:00,
2013-04-18 21:53:00,73.8,63.4,29.86,South,191,0.0,0.0,70,0.00,OVC,,0.00,WeatherDisplay:10.37,2013-04-19 01:53:00,
2013-04-18 21:56:00,73.8,63.4,29.86,South,191,0.0,0.0,70,0.00,OVC,,0.00,WeatherDisplay:10.37,2013-04-19 01:56:00,
2013-04-18 21:57:00,73.7,63.3,29.86,South,191,0.0,1.1,70,0.00,OVC,,0.00,WeatherDisplay:10.37,2013-04-19 01:57:00,
2013-04-18 21:58:00,73.5,63.1,29.86,South,191,0.0,0.0,70,0.00,OVC,,0.00,WeatherDisplay:10.37,2013-04-19 01:58:00,
2013-04-18 22:01:00,73.1,63.1,29.86,South,191,0.1,3.5,71,0.00,CLR,,0.00,WeatherDisplay:10.37,2013-04-19 02:01:00,
2013-04-18 22:02:00,72.9,62.5,29.86,South,190,0.5,1.1,70,0.00,CLR,,0.00,WeatherDisplay:10.37,2013-04-19 02:02:00,
2013-04-18 22:03:00,72.9,62.5,29.86,SSW,201,2.2,3.5,70,0.00,CLR,,0.00,WeatherDisplay:10.37,2013-04-19 02:03:00,
2013-04-18 22:06:00,73.0,62.6,29.86,SSW,201,0.2,1.1,70,0.00,CLR,,0.00,WeatherDisplay:10.37,2013-04-19 02:06:00,
2013-04-18 22:07:00,73.0,62.6,29.86,SSW,201,0.1,1.1,70,0.00,CLR,,0.00,WeatherDisplay:10.37,2013-04-19 02:07:00,
2013-04-18 22:08:00,73.1,62.7,29.86,SSW,201,0.8,3.5,70,0.00,CLR,,0.00,WeatherDisplay:10.37,2013-04-19 02:08:00,
2013-04-18 22:09:00,73.1,62.7,29.86,SSW,201,0.5,3.5,70,0.00,CLR,,0.00,WeatherDisplay:10.37,2013-04-19 02:09:00,
2013-04-18 22:11:00,73.2,62.8,29.86,SSW,200,0.6,2.0,70,0.00,CLR,,0.00,WeatherDisplay:10.37,2013-04-19 02:11:00,
2013-04-18 22:12:00,73.2,63.2,29.86,SSW,201,0.9,3.5,71,0.00,CLR,,0.00,WeatherDisplay:10.37,2013-04-19 02:12:00,
2013-04-18 22:13:00,73.2,62.8,29.86,SSW,192,1.7,3.5,70,0.00,CLR,,0.00,WeatherDisplay:10.37,2013-04-19 02:13:00,
2013-04-18 22:14:00,73.2,62.8,29.86,South,181,2.6,3.5,70,0.00,CLR,,0.00,WeatherDisplay:10.37,2013-04-19 02:14:00,
2013-04-18 22:16:00,73.2,62.8,29.86,South,180,0.5,2.3,70,0.00,CLR,,0.00,WeatherDisplay:10.37,2013-04-19 02:16:00,
2013-04-18 22:17:00,73.3,62.9,29.86,South,182,0.7,2.3,70,0.00,CLR,,0.00,WeatherDisplay:10.37,2013-04-19 02:17:00,
2013-04-18 22:18:00,73.3,62.9,29.86,South,182,0.0,2.3,70,0.00,CLR,,0.00,WeatherDisplay:10.37,2013-04-19 02:18:00,
2013-04-18 22:19:00,73.3,62.5,29.86,South,182,0.9,1.1,69,0.00,CLR,,0.00,WeatherDisplay:10.37,2013-04-19 02:19:00,
2013-04-18 22:21:00,73.3,62.9,29.86,South,183,0.6,2.3,70,0.00,CLR,,0.00,WeatherDisplay:10.37,2013-04-19 02:21:00,
2013-04-18 22:22:00,73.3,62.9,29.86,South,183,0.6,2.3,70,0.00,CLR,,0.00,WeatherDisplay:10.37,2013-04-19 02:22:00,
2013-04-18 22:23:00,73.3,63.3,29.86,SSW,193,0.3,2.3,71,0.00,CLR,,0.00,WeatherDisplay:10.37,2013-04-19 02:23:00,
2013-04-18 22:25:00,73.3,62.9,29.86,SSW,192,1.7,3.5,70,0.00,CLR,,0.00,WeatherDisplay:10.37,2013-04-19 02:25:00,
2013-04-18 22:27:00,73.3,62.9,29.85,SSW,200,2.4,5.0,70,0.00,CLR,,0.00,WeatherDisplay:10.37,2013-04-19 02:27:00,
2013-04-18 22:28:00,73.3,62.9,29.85,SSW,195,1.0,4.6,70,0.00,CLR,,0.00,WeatherDisplay:10.37,2013-04-19 02:28:00,
2013-04-18 22:29:00,73.3,62.9,29.85,SSW,195,0.9,3.5,70,0.00,CLR,,0.00,WeatherDisplay:10.37,2013-04-19 02:29:00,
2013-04-18 22:30:00,73.3,62.5,29.85,South,191,1.0,3.5,69,0.00,CLR,,0.00,WeatherDisplay:10.37,2013-04-19 02:30:00,
2013-04-18 22:32:00,73.3,62.9,29.85,South,186,2.1,4.6,70,0.00,CLR,,0.00,WeatherDisplay:10.37,2013-04-19 02:32:00,
2013-04-18 22:33:00,73.3,62.9,29.85,South,186,1.3,3.5,70,0.00,CLR,,0.00,WeatherDisplay:10.37,2013-04-19 02:33:00,
2013-04-18 22:34:00,73.3,62.5,29.85,South,186,1.6,4.0,69,0.00,CLR,,0.00,WeatherDisplay:10.37,2013-04-19 02:34:00,
2013-04-18 22:35:00,73.3,62.5,29.85,SSE,164,2.0,5.8,69,0.00,CLR,,0.00,WeatherDisplay:10.37,2013-04-19 02:35:00,
2013-04-18 22:37:00,73.3,62.5,29.85,SSW,192,3.4,5.8,69,0.00,CLR,,0.00,WeatherDisplay:10.37,2013-04-19 02:37:00,
2013-04-18 22:39:00,73.3,62.9,29.85,South,189,2.4,5.0,70,0.00,CLR,,0.00,WeatherDisplay:10.37,2013-04-19 02:39:00,
2013-04-18 22:41:00,73.3,62.5,29.85,South,181,2.3,6.9,69,0.00,CLR,,0.00,WeatherDisplay:10.37,2013-04-19 02:41:00,
2013-04-18 22:42:00,73.3,62.9,29.85,South,189,1.9,4.6,70,0.00,CLR,,0.00,WeatherDisplay:10.37,2013-04-19 02:42:00,
2013-04-18 22:43:00,73.3,62.9,29.85,South,182,3.0,4.6,70,0.00,CLR,,0.00,WeatherDisplay:10.37,2013-04-19 02:43:00,
2013-04-18 22:44:00,73.3,62.5,29.85,SSW,199,2.4,6.9,69,0.00,CLR,,0.00,WeatherDisplay:10.37,2013-04-19 02:44:00,
2013-04-18 22:46:00,73.3,62.5,29.84,SSW,195,1.6,3.5,69,0.00,CLR,,0.00,WeatherDisplay:10.37,2013-04-19 02:46:00,
2013-04-18 22:48:00,73.3,62.9,29.84,SSW,201,2.3,3.5,70,0.00,CLR,,0.00,WeatherDisplay:10.37,2013-04-19 02:48:00,
2013-04-18 22:49:00,73.3,62.5,29.84,SSW,195,3.0,5.0,69,0.00,CLR,,0.00,WeatherDisplay:10.37,2013-04-19 02:49:00,
2013-04-18 22:50:00,73.3,62.5,29.84,South,182,2.0,5.8,69,0.00,CLR,,0.00,WeatherDisplay:10.37,2013-04-19 02:50:00,
2013-04-18 22:51:00,73.3,62.9,29.84,SSW,193,3.1,5.8,70,0.00,CLR,,0.00,WeatherDisplay:10.37,2013-04-19 02:51:00,
2013-04-18 22:53:00,73.3,62.5,29.84,SSW,203,2.4,8.1,69,0.00,CLR,,0.00,WeatherDisplay:10.37,2013-04-19 02:53:00,
2013-04-18 22:54:00,73.3,62.5,29.83,South,188,2.2,5.8,69,0.00,CLR,,0.00,WeatherDisplay:10.37,2013-04-19 02:54:00,
2013-04-18 22:55:00,73.3,62.5,29.83,SSW,196,2.2,3.5,69,0.00,CLR,,0.00,WeatherDisplay:10.37,2013-04-19 02:55:00,
2013-04-18 22:56:00,73.3,62.5,29.83,SSE,166,1.3,4.6,69,0.00,CLR,,0.00,WeatherDisplay:10.37,2013-04-19 02:56:00,
2013-04-18 22:58:00,73.3,62.9,29.83,SSE,167,0.3,3.5,70,0.00,CLR,,0.00,WeatherDisplay:10.37,2013-04-19 02:58:00,
2013-04-18 22:59:00,73.3,62.5,29.83,SSW,200,0.8,3.5,69,0.00,CLR,,0.00,WeatherDisplay:10.37,2013-04-19 02:59:00,
2013-04-18 23:00:00,73.3,62.5,29.83,SSW,200,0.1,1.1,69,0.00,BKN,,0.00,WeatherDisplay:10.37,2013-04-19 03:00:00,
2013-04-18 23:01:00,73.2,62.8,29.83,SSW,200,0.6,2.3,70,0.00,BKN,,0.00,WeatherDisplay:10.37,2013-04-19 03:01:00,
2013-04-18 23:03:00,73.2,62.4,29.83,South,189,1.8,3.5,69,0.00,BKN,,0.00,WeatherDisplay:10.37,2013-04-19 03:03:00,
2013-04-18 23:05:00,73.2,62.8,29.83,South,190,0.1,1.1,70,0.00,BKN,,0.00,WeatherDisplay:10.37,2013-04-19 03:05:00,
2013-04-18 23:06:00,73.2,62.8,29.83,South,186,1.8,4.6,70,0.00,BKN,,0.00,WeatherDisplay:10.37,2013-04-19 03:06:00,
2013-04-18 23:07:00,73.2,62.8,29.83,South,185,1.0,5.8,70,0.00,BKN,,0.00,WeatherDisplay:10.37,2013-04-19 03:07:00,
2013-04-18 23:08:00,73.2,62.8,29.82,South,185,0.3,2.3,70,0.00,BKN,,0.00,WeatherDisplay:10.37,2013-04-19 03:08:00,
2013-04-18 23:10:00,73.2,62.4,29.82,South,186,0.5,3.5,69,0.00,BKN,,0.00,WeatherDisplay:10.37,2013-04-19 03:10:00,
2013-04-18 23:11:00,73.2,62.4,29.82,SSW,196,2.4,4.0,69,0.00,BKN,,0.00,WeatherDisplay:10.37,2013-04-19 03:11:00,
2013-04-18 23:12:00,73.2,62.8,29.82,South,188,3.1,4.6,70,0.00,BKN,,0.00,WeatherDisplay:10.37,2013-04-19 03:12:00,
2013-04-18 23:13:00,73.2,62.8,29.82,South,185,1.3,3.5,70,0.00,BKN,,0.00,WeatherDisplay:10.37,2013-04-19 03:13:00,
2013-04-18 23:14:00,73.2,62.4,29.82,South,185,0.3,3.5,69,0.00,BKN,,0.00,WeatherDisplay:10.37,2013-04-19 03:14:00,
2013-04-18 23:15:00,73.2,62.4,29.82,South,185,0.2,2.0,69,0.00,BKN,,0.00,WeatherDisplay:10.37,2013-04-19 03:15:00,
2013-04-18 23:16:00,73.2,62.8,29.82,South,178,0.9,2.3,70,0.00,BKN,,0.00,WeatherDisplay:10.37,2013-04-19 03:16:00,
2013-04-18 23:17:00,73.2,62.4,29.82,South,179,0.9,3.5,69,0.00,BKN,,0.00,WeatherDisplay:10.37,2013-04-19 03:17:00,
2013-04-18 23:19:00,73.2,62.8,29.82,South,190,2.0,5.8,70,0.00,BKN,,0.00,WeatherDisplay:10.37,2013-04-19 03:19:00,
2013-04-18 23:20:00,73.2,62.4,29.82,South,190,1.6,3.5,69,0.00,BKN,,0.00,WeatherDisplay:10.37,2013-04-19 03:20:00,
2013-04-18 23:21:00,73.2,62.8,29.82,SSW,192,2.8,4.6,70,0.00,BKN,,0.00,WeatherDisplay:10.37,2013-04-19 03:21:00,
2013-04-18 23:22:00,73.2,62.8,29.82,SSW,200,2.8,4.6,70,0.00,BKN,,0.00,WeatherDisplay:10.37,2013-04-19 03:22:00,
2013-04-18 23:24:00,73.2,62.4,29.81,SSW,199,0.0,1.0,69,0.00,BKN,,0.00,WeatherDisplay:10.37,2013-04-19 03:24:00,
2013-04-18 23:25:00,73.2,62.8,29.81,South,187,2.7,5.8,70,0.00,BKN,,0.00,WeatherDisplay:10.37,2013-04-19 03:25:00,
2013-04-18 23:26:00,73.2,62.8,29.81,South,187,0.1,1.1,70,0.00,BKN,,0.00,WeatherDisplay:10.37,2013-04-19 03:26:00,
2013-04-18 23:27:00,73.2,62.4,29.81,South,187,0.7,3.0,69,0.00,BKN,,0.00,WeatherDisplay:10.37,2013-04-19 03:27:00,
2013-04-18 23:29:00,73.2,62.8,29.81,South,186,1.1,2.3,70,0.00,BKN,,0.00,WeatherDisplay:10.37,2013-04-19 03:29:00,
2013-04-18 23:31:00,73.1,62.7,29.81,South,186,0.0,1.1,70,0.00,BKN,,0.00,WeatherDisplay:10.37,2013-04-19 03:31:00,
2013-04-18 23:32:00,73.1,62.7,29.81,South,185,0.0,0.0,70,0.00,BKN,,0.00,WeatherDisplay:10.37,2013-04-19 03:32:00,
2013-04-18 23:34:00,73.1,62.7,29.81,SSW,192,0.4,3.5,70,0.00,BKN,,0.00,WeatherDisplay:10.37,2013-04-19 03:34:00,
2013-04-18 23:36:00,73.0,62.6,29.81,South,191,2.0,3.5,70,0.00,BKN,,0.00,WeatherDisplay:10.37,2013-04-19 03:36:00,
2013-04-18 23:37:00,73.0,62.6,29.81,South,191,2.7,3.5,70,0.00,BKN,,0.00,WeatherDisplay:10.37,2013-04-19 03:37:00,
2013-04-18 23:38:00,73.0,62.6,29.82,South,184,2.4,5.8,70,0.00,BKN,,0.00,WeatherDisplay:10.37,2013-04-19 03:38:00,
2013-04-18 23:39:00,73.0,62.6,29.82,South,183,1.5,3.5,70,0.00,BKN,,0.00,WeatherDisplay:10.37,2013-04-19 03:39:00,
2013-04-18 23:41:00,72.9,62.1,29.81,South,184,1.2,3.5,69,0.00,BKN,,0.00,WeatherDisplay:10.37,2013-04-19 03:41:00,
2013-04-18 23:42:00,72.9,62.1,29.81,South,185,0.8,3.5,69,0.00,BKN,,0.00,WeatherDisplay:10.37,2013-04-19 03:42:00,
2013-04-18 23:43:00,72.9,62.5,29.81,South,184,0.0,2.3,70,0.00,BKN,,0.00,WeatherDisplay:10.37,2013-04-19 03:43:00,
2013-04-18 23:45:00,72.9,62.5,29.81,South,184,0.6,2.3,70,0.00,BKN,,0.00,WeatherDisplay:10.37,2013-04-19 03:45:00,
2013-04-18 23:46:00,72.8,62.4,29.81,South,184,0.1,1.1,70,0.00,BKN,,0.00,WeatherDisplay:10.37,2013-04-19 03:46:00,
2013-04-18 23:47:00,72.8,62.4,29.81,South,189,1.6,1.6,70,0.00,BKN,,0.00,WeatherDisplay:10.37,2013-04-19 03:47:00,
2013-04-18 23:48:00,72.8,62.8,29.81,South,190,1.2,3.5,71,0.00,BKN,,0.00,WeatherDisplay:10.37,2013-04-19 03:48:00,
2013-04-18 23:50:00,72.8,62.4,29.81,South,190,0.3,2.0,70,0.00,BKN,,0.00,WeatherDisplay:10.37,2013-04-19 03:50:00,
2013-04-18 23:51:00,72.7,62.8,29.81,South,190,1.2,3.5,71,0.00,BKN,,0.00,WeatherDisplay:10.37,2013-04-19 03:51:00,
2013-04-18 23:53:00,72.7,62.8,29.81,South,191,1.4,3.0,71,0.00,BKN,,0.00,WeatherDisplay:10.37,2013-04-19 03:53:00,
2013-04-18 23:55:00,72.7,62.8,29.81,South,191,1.3,3.5,71,0.00,BKN,,0.00,WeatherDisplay:10.37,2013-04-19 03:55:00,
2013-04-18 23:56:00,72.6,62.7,29.81,South,191,2.2,3.5,71,0.00,BKN,,0.00,WeatherDisplay:10.37,2013-04-19 03:56:00,
2013-04-18 23:58:00,72.6,62.7,29.81,SSW,197,2.0,3.5,71,0.00,BKN,,0.00,WeatherDisplay:10.37,2013-04-19 03:58:00,